Observation data for Rotan on 08/14/2019      Previous  Date  Next       Current Mesonet Observations  Soil Data  Daily Summary Page  Observations in Plain Language
KRO1 140500Z 05013KT 30/20 A3004 RMK A01 T02980204  RH  057%=      5-min Rain = 0
KRO1 140501Z 04012KT 30/20 A3004 RMK A01 T02980204  RH  057%=      5-min Rain = 0
KRO1 140502Z 05010KT 30/20 A3004 RMK A01 T02980204  RH  057%=      5-min Rain = 0
KRO1 140503Z 04012KT 30/20 A3004 RMK A01 T02970204  RH  057%=      5-min Rain = 0
KRO1 140504Z 05011KT 30/20 A3004 RMK A01 T02970204  RH  057%=      5-min Rain = 0
KRO1 140505Z 04012KT 30/20 A3004 RMK A01 T02970204  RH  057%=      5-min Rain = 0
KRO1 140506Z 05013KT 30/20 A3004 RMK A01 T02970204  RH  057%=      5-min Rain = 0
KRO1 140507Z 04014KT 30/20 A3004 RMK A01 T02970204  RH  058%=      5-min Rain = 0
KRO1 140508Z 05010KT 30/20 A3004 RMK A01 T02970204  RH  058%=      5-min Rain = 0
KRO1 140509Z 04011G16KT 30/20 A3004 RMK A01 T02960204  RH  058%=      5-min Rain = 0
KRO1 140510Z 04013KT 30/21 A3004 RMK A01 T02950205  RH  058%=      5-min Rain = 0
KRO1 140524Z 04008KT 29/21 A3004 RMK A01 T02910207  RH  060%=      5-min Rain = 0
KRO1 140525Z 03011KT 29/21 A3004 RMK A01 T02900207  RH  061%=      5-min Rain = 0
KRO1 140526Z 03012KT 29/21 A3004 RMK A01 T02900207  RH  061%=      5-min Rain = 0
KRO1 140527Z 04011KT 29/21 A3004 RMK A01 T02890207  RH  061%=      5-min Rain = 0
KRO1 140528Z 03010KT 29/21 A3004 RMK A01 T02900207  RH  061%=      5-min Rain = 0
KRO1 140529Z 04012KT 29/21 A3004 RMK A01 T02890207  RH  061%=      5-min Rain = 0
KRO1 140530Z 04012KT 29/21 A3004 RMK A01 T02890207  RH  061%=      5-min Rain = 0
KRO1 140531Z 05011KT 29/21 A3004 RMK A01 T02890207  RH  061%=      5-min Rain = 0
KRO1 140532Z 05011KT 29/21 A3004 RMK A01 T02890207  RH  061%=      5-min Rain = 0
KRO1 140533Z 05013KT 29/21 A3004 RMK A01 T02890207  RH  061%=      5-min Rain = 0
KRO1 140534Z 05013KT 29/21 A3004 RMK A01 T02890207  RH  061%=      5-min Rain = 0
KRO1 140535Z 05012KT 29/21 A3004 RMK A01 T02890207  RH  061%=      5-min Rain = 0
KRO1 140536Z 05010KT 29/21 A3004 RMK A01 T02890207  RH  061%=      5-min Rain = 0
KRO1 140537Z 05012KT 29/21 A3004 RMK A01 T02880207  RH  061%=      5-min Rain = 0
KRO1 140538Z 05013KT 29/21 A3004 RMK A01 T02890207  RH  061%=      5-min Rain = 0
KRO1 140539Z 05012KT 29/21 A3004 RMK A01 T02890207  RH  061%=      5-min Rain = 0
KRO1 140540Z 05012KT 29/21 A3004 RMK A01 T02890207  RH  061%=      5-min Rain = 0
KRO1 140541Z 04012KT 29/21 A3004 RMK A01 T02890207  RH  061%=      5-min Rain = 0
KRO1 140542Z 04011KT 29/21 A3004 RMK A01 T02880207  RH  061%=      5-min Rain = 0
KRO1 140543Z 04013KT 29/21 A3004 RMK A01 T02880207  RH  062%=      5-min Rain = 0
KRO1 140544Z 04011KT 29/21 A3004 RMK A01 T02880207  RH  062%=      5-min Rain = 0
KRO1 140545Z 04011KT 29/21 A3004 RMK A01 T02880207  RH  062%=      5-min Rain = 0
KRO1 140546Z 04011KT 29/21 A3004 RMK A01 T02880207  RH  062%=      5-min Rain = 0
KRO1 140547Z 04010KT 29/21 A3004 RMK A01 T02870207  RH  062%=      5-min Rain = 0
KRO1 140548Z 04010KT 29/21 A3004 RMK A01 T02870207  RH  062%=      5-min Rain = 0
KRO1 140549Z 04010KT 29/21 A3004 RMK A01 T02870207  RH  062%=      5-min Rain = 0
KRO1 140550Z 04008KT 29/21 A3004 RMK A01 T02870207  RH  062%=      5-min Rain = 0
KRO1 140551Z 05009KT 29/21 A3004 RMK A01 T02860207  RH  062%=      5-min Rain = 0
KRO1 140552Z 05009KT 29/21 A3004 RMK A01 T02860207  RH  062%=      5-min Rain = 0
KRO1 140553Z 05008KT 29/21 A3004 RMK A01 T02860207  RH  062%=      5-min Rain = 0
KRO1 140554Z 05009KT 29/21 A3004 RMK A01 T02850207  RH  063%=      5-min Rain = 0
KRO1 140555Z 06009KT 29/21 A3004 RMK A01 T02850207  RH  063%=      5-min Rain = 0
KRO1 140556Z 06009KT 29/21 A3004 RMK A01 T02850207  RH  063%=      5-min Rain = 0
KRO1 140557Z 06010KT 29/21 A3004 RMK A01 T02850207  RH  063%=      5-min Rain = 0
KRO1 140558Z 06011KT 28/21 A3004 RMK A01 T02840207  RH  063%=      5-min Rain = 0
KRO1 140559Z 06009KT 28/21 A3004 RMK A01 T02840207  RH  063%=      5-min Rain = 0
KRO1 140600Z 06009KT 28/21 A3004 RMK A01 T02840208  RH  063%=      5-min Rain = 0
KRO1 140601Z 06009KT 28/21 A3004 RMK A01 T02830207  RH  063%=      5-min Rain = 0
KRO1 140602Z 06009KT 28/21 A3004 RMK A01 T02830208  RH  064%=      5-min Rain = 0
KRO1 140603Z 05008KT 28/21 A3004 RMK A01 T02830207  RH  064%=      5-min Rain = 0
KRO1 140604Z 05009KT 28/21 A3004 RMK A01 T02830208  RH  064%=      5-min Rain = 0
KRO1 140605Z 05008KT 28/21 A3004 RMK A01 T02820208  RH  064%=      5-min Rain = 0
KRO1 140606Z 04008KT 28/21 A3005 RMK A01 T02820208  RH  064%=      5-min Rain = 0
KRO1 140607Z 05007KT 28/21 A3005 RMK A01 T02820207  RH  064%=      5-min Rain = 0
KRO1 140608Z 05008KT 28/21 A3005 RMK A01 T02820208  RH  064%=      5-min Rain = 0
KRO1 140609Z 04007KT 28/21 A3005 RMK A01 T02810208  RH  064%=      5-min Rain = 0
KRO1 140610Z 04007KT 28/21 A3005 RMK A01 T02810208  RH  064%=      5-min Rain = 0
KRO1 140611Z 04007KT 28/21 A3005 RMK A01 T02810208  RH  064%=      5-min Rain = 0
KRO1 140612Z 05011KT 28/21 A3005 RMK A01 T02810207  RH  064%=      5-min Rain = 0
KRO1 140613Z 05011KT 28/21 A3005 RMK A01 T02810207  RH  064%=      5-min Rain = 0
KRO1 140614Z 05011KT 28/21 A3005 RMK A01 T02820207  RH  064%=      5-min Rain = 0
KRO1 140615Z 05012KT 28/21 A3005 RMK A01 T02820207  RH  064%=      5-min Rain = 0
KRO1 140616Z 04010KT 28/21 A3005 RMK A01 T02830207  RH  063%=      5-min Rain = 0
KRO1 140617Z 04010KT 28/21 A3005 RMK A01 T02830207  RH  063%=      5-min Rain = 0
KRO1 140618Z 04010KT 28/21 A3005 RMK A01 T02820207  RH  064%=      5-min Rain = 0
KRO1 140619Z 04012KT 28/21 A3005 RMK A01 T02820207  RH  064%=      5-min Rain = 0
KRO1 140620Z 04012KT 28/21 A3005 RMK A01 T02820207  RH  064%=      5-min Rain = 0
KRO1 140621Z 04010KT 28/21 A3005 RMK A01 T02820207  RH  064%=      5-min Rain = 0
KRO1 140622Z 05009KT 28/21 A3005 RMK A01 T02820207  RH  064%=      5-min Rain = 0
KRO1 140623Z 04011KT 28/21 A3005 RMK A01 T02820207  RH  064%=      5-min Rain = 0
KRO1 140624Z 04010KT 28/21 A3005 RMK A01 T02820207  RH  064%=      5-min Rain = 0
KRO1 140625Z 04011KT 28/21 A3005 RMK A01 T02810207  RH  064%=      5-min Rain = 0
KRO1 140626Z 04009KT 28/21 A3005 RMK A01 T02810207  RH  064%=      5-min Rain = 0
KRO1 140627Z 04010KT 28/21 A3005 RMK A01 T02810207  RH  064%=      5-min Rain = 0
KRO1 140628Z 04009KT 28/21 A3005 RMK A01 T02810206  RH  064%=      5-min Rain = 0
KRO1 140629Z 04009KT 28/21 A3005 RMK A01 T02810206  RH  064%=      5-min Rain = 0
KRO1 140630Z 04009KT 28/21 A3005 RMK A01 T02810206  RH  064%=      5-min Rain = 0
KRO1 140631Z 04010KT 28/21 A3005 RMK A01 T02800206  RH  064%=      5-min Rain = 0
KRO1 140632Z 04010KT 28/21 A3005 RMK A01 T02800206  RH  064%=      5-min Rain = 0
KRO1 140633Z 04010KT 28/21 A3004 RMK A01 T02800206  RH  064%=      5-min Rain = 0
KRO1 140634Z 04009KT 28/21 A3004 RMK A01 T02800206  RH  064%=      5-min Rain = 0
KRO1 140635Z 04008KT 28/21 A3004 RMK A01 T02800206  RH  064%=      5-min Rain = 0
KRO1 140636Z 04009KT 28/21 A3004 RMK A01 T02800205  RH  064%=      5-min Rain = 0
KRO1 140637Z 04008KT 28/21 A3004 RMK A01 T02790206  RH  064%=      5-min Rain = 0
KRO1 140638Z 04009KT 28/21 A3004 RMK A01 T02790205  RH  064%=      5-min Rain = 0
KRO1 140639Z 04009KT 28/21 A3004 RMK A01 T02790206  RH  064%=      5-min Rain = 0
KRO1 140640Z 04008KT 28/21 A3004 RMK A01 T02790206  RH  064%=      5-min Rain = 0
KRO1 140641Z 04009KT 28/21 A3004 RMK A01 T02780205  RH  065%=      5-min Rain = 0
KRO1 140642Z 04009KT 28/21 A3004 RMK A01 T02780205  RH  065%=      5-min Rain = 0
KRO1 140643Z 04010KT 28/21 A3004 RMK A01 T02780206  RH  065%=      5-min Rain = 0
KRO1 140644Z 04009KT 28/21 A3004 RMK A01 T02780206  RH  065%=      5-min Rain = 0
KRO1 140645Z 04008KT 28/21 A3004 RMK A01 T02780206  RH  065%=      5-min Rain = 0
KRO1 140646Z 04008KT 28/21 A3004 RMK A01 T02780206  RH  065%=      5-min Rain = 0
KRO1 140647Z 04008KT 28/21 A3004 RMK A01 T02770205  RH  065%=      5-min Rain = 0
KRO1 140648Z 03008KT 28/21 A3004 RMK A01 T02770205  RH  065%=      5-min Rain = 0
KRO1 140649Z 03009KT 28/21 A3004 RMK A01 T02770206  RH  065%=      5-min Rain = 0
KRO1 140650Z 03009KT 28/21 A3004 RMK A01 T02770206  RH  065%=      5-min Rain = 0
KRO1 140651Z 03010KT 28/21 A3004 RMK A01 T02770206  RH  065%=      5-min Rain = 0
KRO1 140652Z 04010KT 28/21 A3004 RMK A01 T02770206  RH  065%=      5-min Rain = 0
KRO1 140653Z 04009KT 28/21 A3004 RMK A01 T02770206  RH  065%=      5-min Rain = 0
KRO1 140654Z 04010KT 28/21 A3004 RMK A01 T02770207  RH  065%=      5-min Rain = 0
KRO1 140655Z 04010KT 28/21 A3004 RMK A01 T02770206  RH  065%=      5-min Rain = 0
KRO1 140656Z 04010KT 28/21 A3004 RMK A01 T02770206  RH  065%=      5-min Rain = 0
KRO1 140657Z 04009KT 28/21 A3004 RMK A01 T02770206  RH  065%=      5-min Rain = 0
KRO1 140658Z 04010KT 28/21 A3004 RMK A01 T02770206  RH  065%=      5-min Rain = 0
KRO1 140659Z 04009KT 28/21 A3004 RMK A01 T02770206  RH  065%=      5-min Rain = 0
KRO1 140700Z 04009KT 28/21 A3004 RMK A01 T02770206  RH  065%=      5-min Rain = 0
KRO1 140701Z 04011KT 28/21 A3004 RMK A01 T02770206  RH  065%=      5-min Rain = 0
KRO1 140702Z 03011KT 28/21 A3004 RMK A01 T02770206  RH  065%=      5-min Rain = 0
KRO1 140703Z 04010KT 28/21 A3004 RMK A01 T02770206  RH  065%=      5-min Rain = 0
KRO1 140704Z 03011KT 28/21 A3004 RMK A01 T02770206  RH  065%=      5-min Rain = 0
KRO1 140705Z 03010KT 28/21 A3004 RMK A01 T02770206  RH  065%=      5-min Rain = 0
KRO1 140706Z 03008KT 28/21 A3004 RMK A01 T02770206  RH  065%=      5-min Rain = 0
KRO1 140707Z 03010KT 28/21 A3004 RMK A01 T02770206  RH  065%=      5-min Rain = 0
KRO1 140708Z 02009KT 28/21 A3004 RMK A01 T02770206  RH  065%=      5-min Rain = 0
KRO1 140709Z 02009KT 28/21 A3004 RMK A01 T02760206  RH  066%=      5-min Rain = 0
KRO1 140710Z 02008KT 28/21 A3004 RMK A01 T02760206  RH  066%=      5-min Rain = 0
KRO1 140711Z 03009KT 28/21 A3004 RMK A01 T02750206  RH  066%=      5-min Rain = 0
KRO1 140712Z 03011KT 28/21 A3004 RMK A01 T02750206  RH  066%=      5-min Rain = 0
KRO1 140713Z 02010KT 28/21 A3004 RMK A01 T02750207  RH  066%=      5-min Rain = 0
KRO1 140714Z 03010KT 28/21 A3004 RMK A01 T02750206  RH  066%=      5-min Rain = 0
KRO1 140715Z 03011KT 27/21 A3004 RMK A01 T02740206  RH  066%=      5-min Rain = 0
KRO1 140716Z 03012KT 27/21 A3004 RMK A01 T02740206  RH  066%=      5-min Rain = 0
KRO1 140717Z 03011KT 28/21 A3004 RMK A01 T02750206  RH  066%=      5-min Rain = 0
KRO1 140718Z 03011KT 28/21 A3004 RMK A01 T02750206  RH  066%=      5-min Rain = 0
KRO1 140719Z 03012KT 27/21 A3004 RMK A01 T02740206  RH  066%=      5-min Rain = 0
KRO1 140720Z 03010KT 28/21 A3004 RMK A01 T02750206  RH  066%=      5-min Rain = 0
KRO1 140721Z 03011KT 27/21 A3004 RMK A01 T02740206  RH  066%=      5-min Rain = 0
KRO1 140722Z 03012KT 28/21 A3004 RMK A01 T02750206  RH  066%=      5-min Rain = 0
KRO1 140723Z 03011KT 28/21 A3004 RMK A01 T02750206  RH  066%=      5-min Rain = 0
KRO1 140724Z 03012KT 28/21 A3004 RMK A01 T02750205  RH  066%=      5-min Rain = 0
KRO1 140725Z 03011KT 28/21 A3004 RMK A01 T02750205  RH  066%=      5-min Rain = 0
KRO1 140726Z 03010KT 28/21 A3004 RMK A01 T02750205  RH  066%=      5-min Rain = 0
KRO1 140727Z 03013KT 28/21 A3004 RMK A01 T02750205  RH  066%=      5-min Rain = 0
KRO1 140728Z 03012KT 27/21 A3004 RMK A01 T02740205  RH  066%=      5-min Rain = 0
KRO1 140729Z 03012KT 28/21 A3004 RMK A01 T02750205  RH  066%=      5-min Rain = 0
KRO1 140730Z 03011KT 28/20 A3004 RMK A01 T02750204  RH  066%=      5-min Rain = 0
KRO1 140731Z 03013KT 27/20 A3004 RMK A01 T02740204  RH  065%=      5-min Rain = 0
KRO1 140732Z 03013KT 27/20 A3004 RMK A01 T02740204  RH  065%=      5-min Rain = 0
KRO1 140733Z 03013KT 28/20 A3004 RMK A01 T02750204  RH  065%=      5-min Rain = 0
KRO1 140734Z 03012KT 27/20 A3004 RMK A01 T02740203  RH  065%=      5-min Rain = 0
KRO1 140735Z 03012KT 28/20 A3004 RMK A01 T02750203  RH  065%=      5-min Rain = 0
KRO1 140736Z 04013KT 27/20 A3004 RMK A01 T02740203  RH  065%=      5-min Rain = 0
KRO1 140737Z 03011KT 27/20 A3004 RMK A01 T02740203  RH  065%=      5-min Rain = 0
KRO1 140738Z 04014KT 28/20 A3004 RMK A01 T02750203  RH  065%=      5-min Rain = 0
KRO1 140739Z 03012KT 28/20 A3004 RMK A01 T02750203  RH  065%=      5-min Rain = 0
KRO1 140740Z 04012KT 27/20 A3004 RMK A01 T02740203  RH  065%=      5-min Rain = 0
KRO1 140741Z 03012KT 27/20 A3004 RMK A01 T02740203  RH  065%=      5-min Rain = 0
KRO1 140742Z 04011KT 28/20 A3004 RMK A01 T02750203  RH  065%=      5-min Rain = 0
KRO1 140743Z 03012KT 27/20 A3004 RMK A01 T02740203  RH  065%=      5-min Rain = 0
KRO1 140744Z 04013KT 27/20 A3004 RMK A01 T02740202  RH  065%=      5-min Rain = 0
KRO1 140745Z 04010KT 27/20 A3004 RMK A01 T02740203  RH  065%=      5-min Rain = 0
KRO1 140746Z 04010KT 27/20 A3004 RMK A01 T02740202  RH  065%=      5-min Rain = 0
KRO1 140747Z 03011KT 27/20 A3004 RMK A01 T02740203  RH  065%=      5-min Rain = 0
KRO1 140748Z 04012KT 27/20 A3004 RMK A01 T02740203  RH  065%=      5-min Rain = 0
KRO1 140749Z 03015KT 27/20 A3004 RMK A01 T02740203  RH  065%=      5-min Rain = 0
KRO1 140750Z 03014KT 27/20 A3004 RMK A01 T02740203  RH  065%=      5-min Rain = 0
KRO1 140751Z 04015KT 27/20 A3004 RMK A01 T02740203  RH  065%=      5-min Rain = 0
KRO1 140752Z 04014KT 27/20 A3004 RMK A01 T02740203  RH  065%=      5-min Rain = 0
KRO1 140753Z 03017KT 27/20 A3004 RMK A01 T02740203  RH  065%=      5-min Rain = 0
KRO1 140754Z 03014G19KT 27/20 A3004 RMK A01 T02740203  RH  065%=      5-min Rain = 0
KRO1 140755Z 03012KT 27/20 A3004 RMK A01 T02740203  RH  065%=      5-min Rain = 0
KRO1 140756Z 04015KT 27/20 A3004 RMK A01 T02740203  RH  065%=      5-min Rain = 0
KRO1 140757Z 04012KT 27/20 A3004 RMK A01 T02740203  RH  065%=      5-min Rain = 0
KRO1 140758Z 04013KT 27/20 A3004 RMK A01 T02740204  RH  065%=      5-min Rain = 0
KRO1 140759Z 04015G20KT 27/20 A3004 RMK A01 T02730203  RH  066%=      5-min Rain = 0
KRO1 140800Z 04017KT 27/20 A3004 RMK A01 T02730203  RH  066%=      5-min Rain = 0
KRO1 140801Z 03011KT 27/20 A3004 RMK A01 T02730203  RH  066%=      5-min Rain = 0
KRO1 140802Z 03011KT 27/20 A3004 RMK A01 T02730203  RH  066%=      5-min Rain = 0
KRO1 140803Z 03012KT 27/20 A3004 RMK A01 T02730204  RH  066%=      5-min Rain = 0
KRO1 140804Z 04013KT 27/20 A3004 RMK A01 T02730203  RH  066%=      5-min Rain = 0
KRO1 140805Z 03010KT 27/20 A3004 RMK A01 T02730203  RH  066%=      5-min Rain = 0
KRO1 140806Z 04011KT 27/20 A3004 RMK A01 T02720203  RH  066%=      5-min Rain = 0
KRO1 140807Z 03011KT 27/20 A3004 RMK A01 T02720203  RH  066%=      5-min Rain = 0
KRO1 140808Z 03011KT 27/20 A3004 RMK A01 T02720203  RH  066%=      5-min Rain = 0
KRO1 140809Z 03011KT 27/20 A3004 RMK A01 T02720204  RH  066%=      5-min Rain = 0
KRO1 140810Z 04012KT 27/20 A3004 RMK A01 T02710204  RH  066%=      5-min Rain = 0
KRO1 140811Z 03011KT 27/20 A3004 RMK A01 T02710203  RH  066%=      5-min Rain = 0
KRO1 140812Z 04011KT 27/20 A3004 RMK A01 T02710203  RH  067%=      5-min Rain = 0
KRO1 140813Z 04010KT 27/20 A3004 RMK A01 T02710204  RH  067%=      5-min Rain = 0
KRO1 140814Z 04011KT 27/20 A3004 RMK A01 T02710203  RH  067%=      5-min Rain = 0
KRO1 140815Z 04012KT 27/20 A3004 RMK A01 T02700203  RH  067%=      5-min Rain = 0
KRO1 140816Z 04011KT 27/20 A3004 RMK A01 T02700203  RH  067%=      5-min Rain = 0
KRO1 140817Z 04013KT 27/20 A3004 RMK A01 T02700203  RH  067%=      5-min Rain = 0
KRO1 140818Z 04012KT 27/20 A3004 RMK A01 T02700204  RH  067%=      5-min Rain = 0
KRO1 140819Z 03010KT 27/20 A3004 RMK A01 T02700203  RH  067%=      5-min Rain = 0
KRO1 140820Z 04010KT 27/20 A3004 RMK A01 T02690203  RH  067%=      5-min Rain = 0
KRO1 140821Z 04010KT 27/20 A3004 RMK A01 T02690203  RH  067%=      5-min Rain = 0
KRO1 140822Z 04010KT 27/20 A3004 RMK A01 T02690204  RH  067%=      5-min Rain = 0
KRO1 140823Z 04009KT 27/20 A3004 RMK A01 T02680203  RH  067%=      5-min Rain = 0
KRO1 140824Z 04009KT 27/20 A3004 RMK A01 T02690204  RH  068%=      5-min Rain = 0
KRO1 140825Z 04011KT 27/20 A3004 RMK A01 T02680204  RH  068%=      5-min Rain = 0
KRO1 140826Z 05010KT 27/20 A3004 RMK A01 T02680204  RH  068%=      5-min Rain = 0
KRO1 140827Z 04008KT 27/20 A3004 RMK A01 T02680204  RH  068%=      5-min Rain = 0
KRO1 140828Z 05008KT 27/20 A3004 RMK A01 T02680204  RH  068%=      5-min Rain = 0
KRO1 140829Z 05011KT 27/20 A3004 RMK A01 T02670203  RH  068%=      5-min Rain = 0
KRO1 140830Z 05011KT 27/20 A3004 RMK A01 T02670204  RH  068%=      5-min Rain = 0
KRO1 140831Z 05011KT 27/20 A3004 RMK A01 T02670204  RH  068%=      5-min Rain = 0
KRO1 140832Z 05010KT 27/20 A3004 RMK A01 T02670204  RH  068%=      5-min Rain = 0
KRO1 140833Z 05009KT 27/20 A3004 RMK A01 T02670203  RH  068%=      5-min Rain = 0
KRO1 140834Z 05010KT 27/20 A3004 RMK A01 T02670204  RH  068%=      5-min Rain = 0
KRO1 140835Z 04008KT 27/20 A3004 RMK A01 T02670204  RH  068%=      5-min Rain = 0
KRO1 140836Z 04008KT 27/20 A3004 RMK A01 T02670204  RH  068%=      5-min Rain = 0
KRO1 140837Z 04009KT 27/20 A3004 RMK A01 T02660204  RH  069%=      5-min Rain = 0
KRO1 140838Z 04008KT 27/20 A3004 RMK A01 T02660203  RH  069%=      5-min Rain = 0
KRO1 140839Z 04010KT 27/20 A3004 RMK A01 T02660204  RH  069%=      5-min Rain = 0
KRO1 140840Z 04009KT 27/20 A3004 RMK A01 T02660204  RH  069%=      5-min Rain = 0
KRO1 140841Z 04009KT 27/20 A3004 RMK A01 T02660204  RH  069%=      5-min Rain = 0
KRO1 140842Z 03010KT 27/20 A3004 RMK A01 T02660204  RH  069%=      5-min Rain = 0
KRO1 140843Z 03010KT 27/20 A3004 RMK A01 T02650204  RH  069%=      5-min Rain = 0
KRO1 140844Z 03010KT 27/20 A3004 RMK A01 T02660204  RH  069%=      5-min Rain = 0
KRO1 140845Z 03011KT 27/20 A3005 RMK A01 T02650204  RH  069%=      5-min Rain = 0
KRO1 140846Z 03009KT 27/20 A3005 RMK A01 T02660204  RH  069%=      5-min Rain = 0
KRO1 140847Z 02011KT 27/20 A3005 RMK A01 T02650204  RH  069%=      5-min Rain = 0
KRO1 140848Z 03011KT 27/20 A3005 RMK A01 T02650204  RH  069%=      5-min Rain = 0
KRO1 140849Z 02012KT 27/20 A3004 RMK A01 T02650204  RH  069%=      5-min Rain = 0
KRO1 140850Z 03011KT 27/20 A3004 RMK A01 T02660204  RH  069%=      5-min Rain = 0
KRO1 140851Z 03011KT 27/20 A3004 RMK A01 T02660204  RH  069%=      5-min Rain = 0
KRO1 140852Z 03013KT 27/20 A3004 RMK A01 T02660204  RH  069%=      5-min Rain = 0
KRO1 140853Z 03014KT 27/20 A3004 RMK A01 T02660204  RH  069%=      5-min Rain = 0
KRO1 140854Z 03012KT 27/20 A3005 RMK A01 T02660204  RH  069%=      5-min Rain = 0
KRO1 140855Z 03013KT 27/20 A3005 RMK A01 T02660204  RH  069%=      5-min Rain = 0
KRO1 140856Z 03012KT 27/20 A3005 RMK A01 T02670204  RH  068%=      5-min Rain = 0
KRO1 140857Z 03013KT 27/20 A3005 RMK A01 T02670204  RH  068%=      5-min Rain = 0
KRO1 140858Z 03011KT 27/20 A3005 RMK A01 T02670203  RH  068%=      5-min Rain = 0
KRO1 140859Z 03012KT 27/20 A3005 RMK A01 T02670203  RH  068%=      5-min Rain = 0
KRO1 140900Z 03011KT 27/20 A3005 RMK A01 T02670204  RH  068%=      5-min Rain = 0
KRO1 140901Z 03010KT 27/20 A3005 RMK A01 T02670204  RH  068%=      5-min Rain = 0
KRO1 140902Z 02011KT 27/20 A3005 RMK A01 T02670204  RH  068%=      5-min Rain = 0
KRO1 140903Z 03011KT 27/20 A3004 RMK A01 T02670204  RH  068%=      5-min Rain = 0
KRO1 140904Z 03012KT 27/20 A3004 RMK A01 T02670203  RH  068%=      5-min Rain = 0
KRO1 140905Z 03009KT 27/20 A3004 RMK A01 T02670203  RH  068%=      5-min Rain = 0
KRO1 140906Z 02010KT 27/20 A3004 RMK A01 T02670203  RH  068%=      5-min Rain = 0
KRO1 140907Z 04011KT 27/20 A3004 RMK A01 T02670203  RH  068%=      5-min Rain = 0
KRO1 140908Z 03011KT 27/20 A3004 RMK A01 T02670203  RH  068%=      5-min Rain = 0
KRO1 140909Z 03012KT 27/20 A3004 RMK A01 T02660203  RH  068%=      5-min Rain = 0
KRO1 140910Z 03012KT 27/20 A3004 RMK A01 T02660202  RH  068%=      5-min Rain = 0
KRO1 140911Z 03011KT 27/20 A3004 RMK A01 T02660202  RH  068%=      5-min Rain = 0
KRO1 140912Z 03011KT 27/20 A3004 RMK A01 T02660202  RH  068%=      5-min Rain = 0
KRO1 140913Z 03010KT 27/20 A3004 RMK A01 T02660202  RH  068%=      5-min Rain = 0
KRO1 140914Z 04009KT 27/20 A3004 RMK A01 T02650202  RH  068%=      5-min Rain = 0
KRO1 140915Z 04009KT 27/20 A3004 RMK A01 T02650202  RH  068%=      5-min Rain = 0
KRO1 140916Z 04009KT 27/20 A3004 RMK A01 T02650202  RH  069%=      5-min Rain = 0
KRO1 140917Z 04009KT 27/20 A3004 RMK A01 T02650202  RH  069%=      5-min Rain = 0
KRO1 140918Z 04008KT 27/20 A3004 RMK A01 T02650203  RH  069%=      5-min Rain = 0
KRO1 140919Z 04009KT 26/20 A3003 RMK A01 T02640202  RH  069%=      5-min Rain = 0
KRO1 140920Z 04008KT 26/20 A3003 RMK A01 T02630202  RH  069%=      5-min Rain = 0
KRO1 140921Z 04009KT 26/20 A3003 RMK A01 T02630202  RH  069%=      5-min Rain = 0
KRO1 140922Z 04009KT 26/20 A3004 RMK A01 T02630202  RH  069%=      5-min Rain = 0
KRO1 140923Z 04009KT 26/20 A3004 RMK A01 T02630202  RH  069%=      5-min Rain = 0
KRO1 140924Z 04010KT 26/20 A3004 RMK A01 T02630202  RH  069%=      5-min Rain = 0
KRO1 140925Z 04009KT 26/20 A3004 RMK A01 T02630202  RH  069%=      5-min Rain = 0
KRO1 140926Z 04010KT 26/20 A3004 RMK A01 T02630202  RH  069%=      5-min Rain = 0
KRO1 140927Z 04010KT 26/20 A3004 RMK A01 T02630202  RH  069%=      5-min Rain = 0
KRO1 140928Z 03009KT 26/20 A3004 RMK A01 T02630202  RH  069%=      5-min Rain = 0
KRO1 140929Z 04010KT 26/20 A3004 RMK A01 T02630201  RH  069%=      5-min Rain = 0
KRO1 140930Z 04011KT 26/20 A3004 RMK A01 T02630201  RH  069%=      5-min Rain = 0
KRO1 140931Z 04009KT 26/20 A3004 RMK A01 T02630202  RH  069%=      5-min Rain = 0
KRO1 140932Z 04010KT 26/20 A3004 RMK A01 T02630202  RH  069%=      5-min Rain = 0
KRO1 140933Z 04009KT 26/20 A3004 RMK A01 T02630202  RH  069%=      5-min Rain = 0
KRO1 140934Z 03010KT 26/20 A3004 RMK A01 T02620202  RH  069%=      5-min Rain = 0
KRO1 140935Z 04010KT 26/20 A3004 RMK A01 T02620202  RH  069%=      5-min Rain = 0
KRO1 140936Z 03010KT 26/20 A3004 RMK A01 T02620202  RH  069%=      5-min Rain = 0
KRO1 140937Z 04009KT 26/20 A3004 RMK A01 T02620202  RH  069%=      5-min Rain = 0
KRO1 140938Z 04009KT 26/20 A3004 RMK A01 T02620202  RH  069%=      5-min Rain = 0
KRO1 140939Z 04011KT 26/20 A3004 RMK A01 T02620201  RH  069%=      5-min Rain = 0
KRO1 140940Z 03011KT 26/20 A3004 RMK A01 T02620201  RH  069%=      5-min Rain = 0
KRO1 140941Z 04012KT 26/20 A3004 RMK A01 T02620201  RH  069%=      5-min Rain = 0
KRO1 140942Z 04012KT 26/20 A3004 RMK A01 T02620201  RH  069%=      5-min Rain = 0
KRO1 140943Z 03011KT 26/20 A3004 RMK A01 T02620201  RH  069%=      5-min Rain = 0
KRO1 140944Z 03011KT 26/20 A3004 RMK A01 T02620201  RH  069%=      5-min Rain = 0
KRO1 140945Z 04011KT 26/20 A3004 RMK A01 T02620201  RH  069%=      5-min Rain = 0
KRO1 140946Z 04012KT 26/20 A3004 RMK A01 T02620201  RH  069%=      5-min Rain = 0
KRO1 140947Z 04012KT 26/20 A3004 RMK A01 T02620201  RH  069%=      5-min Rain = 0
KRO1 140948Z 03010KT 26/20 A3004 RMK A01 T02610201  RH  069%=      5-min Rain = 0
KRO1 140949Z 03012KT 26/20 A3004 RMK A01 T02610201  RH  069%=      5-min Rain = 0
KRO1 140950Z 04011KT 26/20 A3004 RMK A01 T02610201  RH  070%=      5-min Rain = 0
KRO1 140951Z 03012KT 26/20 A3004 RMK A01 T02610201  RH  070%=      5-min Rain = 0
KRO1 140952Z 04010KT 26/20 A3004 RMK A01 T02610201  RH  069%=      5-min Rain = 0
KRO1 140953Z 03010KT 26/20 A3005 RMK A01 T02610201  RH  070%=      5-min Rain = 0
KRO1 140954Z 03011KT 26/20 A3005 RMK A01 T02600201  RH  070%=      5-min Rain = 0
KRO1 140955Z 04011KT 26/20 A3005 RMK A01 T02600201  RH  070%=      5-min Rain = 0
KRO1 140956Z 03011KT 26/20 A3005 RMK A01 T02600201  RH  070%=      5-min Rain = 0
KRO1 140957Z 03013KT 26/20 A3005 RMK A01 T02600201  RH  070%=      5-min Rain = 0
KRO1 140958Z 03013KT 26/20 A3005 RMK A01 T02610201  RH  070%=      5-min Rain = 0
KRO1 140959Z 04011KT 26/20 A3005 RMK A01 T02600201  RH  070%=      5-min Rain = 0
KRO1 141000Z 03011KT 26/20 A3005 RMK A01 T02600201  RH  070%=      5-min Rain = 0
KRO1 141001Z 04009KT 26/20 A3005 RMK A01 T02600201  RH  070%=      5-min Rain = 0
KRO1 141002Z 03009KT 26/20 A3005 RMK A01 T02600201  RH  070%=      5-min Rain = 0
KRO1 141003Z 04011KT 26/20 A3005 RMK A01 T02590201  RH  070%=      5-min Rain = 0
KRO1 141004Z 04012KT 26/20 A3005 RMK A01 T02590201  RH  070%=      5-min Rain = 0
KRO1 141005Z 04011KT 26/20 A3005 RMK A01 T02590200  RH  070%=      5-min Rain = 0
KRO1 141006Z 03010KT 26/20 A3005 RMK A01 T02590200  RH  070%=      5-min Rain = 0
KRO1 141007Z 03011KT 26/20 A3005 RMK A01 T02590201  RH  070%=      5-min Rain = 0
KRO1 141008Z 03010G15KT 26/20 A3005 RMK A01 T02590201  RH  070%=      5-min Rain = 0
KRO1 141009Z 03012KT 26/20 A3005 RMK A01 T02590200  RH  070%=      5-min Rain = 0
KRO1 141010Z 03009KT 26/20 A3004 RMK A01 T02590200  RH  070%=      5-min Rain = 0
KRO1 141011Z 04012KT 26/20 A3004 RMK A01 T02580200  RH  070%=      5-min Rain = 0
KRO1 141012Z 04014KT 26/20 A3004 RMK A01 T02580200  RH  070%=      5-min Rain = 0
KRO1 141013Z 04011KT 26/20 A3004 RMK A01 T02580200  RH  070%=      5-min Rain = 0
KRO1 141014Z 03014KT 26/20 A3004 RMK A01 T02580199  RH  070%=      5-min Rain = 0
KRO1 141015Z 04014KT 26/20 A3004 RMK A01 T02580199  RH  070%=      5-min Rain = 0
KRO1 141016Z 04016KT 26/20 A3004 RMK A01 T02580199  RH  070%=      5-min Rain = 0
KRO1 141017Z 04015KT 26/20 A3004 RMK A01 T02580198  RH  070%=      5-min Rain = 0
KRO1 141018Z 04016KT 26/20 A3005 RMK A01 T02580198  RH  070%=      5-min Rain = 0
KRO1 141019Z 04014KT 26/20 A3005 RMK A01 T02570198  RH  070%=      5-min Rain = 0
KRO1 141020Z 05013KT 26/20 A3005 RMK A01 T02570198  RH  070%=      5-min Rain = 0
KRO1 141021Z 04011KT 26/20 A3005 RMK A01 T02570198  RH  070%=      5-min Rain = 0
KRO1 141022Z 04011G16KT 26/20 A3005 RMK A01 T02560198  RH  070%=      5-min Rain = 0
KRO1 141023Z 04012KT 26/20 A3005 RMK A01 T02560197  RH  070%=      5-min Rain = 0
KRO1 141024Z 04012KT 26/20 A3005 RMK A01 T02560198  RH  070%=      5-min Rain = 0
KRO1 141025Z 04013KT 26/20 A3005 RMK A01 T02560198  RH  070%=      5-min Rain = 0
KRO1 141026Z 04013KT 26/20 A3005 RMK A01 T02550197  RH  070%=      5-min Rain = 0
KRO1 141027Z 04012KT 26/20 A3005 RMK A01 T02550197  RH  070%=      5-min Rain = 0
KRO1 141028Z 04012KT 26/20 A3005 RMK A01 T02550197  RH  070%=      5-min Rain = 0
KRO1 141029Z 04012KT 25/20 A3005 RMK A01 T02540197  RH  071%=      5-min Rain = 0
KRO1 141030Z 04011KT 25/20 A3005 RMK A01 T02540197  RH  071%=      5-min Rain = 0
KRO1 141031Z 04013KT 25/20 A3005 RMK A01 T02540197  RH  071%=      5-min Rain = 0
KRO1 141032Z 04013KT 25/20 A3005 RMK A01 T02530197  RH  071%=      5-min Rain = 0
KRO1 141033Z 04012KT 25/20 A3006 RMK A01 T02540197  RH  071%=      5-min Rain = 0
KRO1 141034Z 04013KT 25/20 A3006 RMK A01 T02530197  RH  071%=      5-min Rain = 0
KRO1 141035Z 04013KT 25/20 A3005 RMK A01 T02530197  RH  071%=      5-min Rain = 0
KRO1 141036Z 04013KT 25/20 A3006 RMK A01 T02530197  RH  071%=      5-min Rain = 0
KRO1 141037Z 04009KT 25/20 A3006 RMK A01 T02530197  RH  071%=      5-min Rain = 0
KRO1 141038Z 04010KT 25/20 A3006 RMK A01 T02530197  RH  071%=      5-min Rain = 0
KRO1 141039Z 04012KT 25/20 A3006 RMK A01 T02520197  RH  071%=      5-min Rain = 0
KRO1 141040Z 04013KT 25/20 A3006 RMK A01 T02520196  RH  071%=      5-min Rain = 0
KRO1 141041Z 04012KT 25/20 A3006 RMK A01 T02510196  RH  071%=      5-min Rain = 0
KRO1 141042Z 04015KT 25/20 A3006 RMK A01 T02520197  RH  072%=      5-min Rain = 0
KRO1 141043Z 04015KT 25/20 A3006 RMK A01 T02520197  RH  072%=      5-min Rain = 0
KRO1 141044Z 03014KT 25/20 A3007 RMK A01 T02520197  RH  072%=      5-min Rain = 0
KRO1 141045Z 04013KT 25/20 A3007 RMK A01 T02520197  RH  072%=      5-min Rain = 0
KRO1 141046Z 04012G17KT 25/20 A3007 RMK A01 T02520197  RH  072%=      5-min Rain = 0
KRO1 141047Z 04013KT 25/20 A3007 RMK A01 T02510197  RH  072%=      5-min Rain = 0
KRO1 141048Z 04013KT 25/20 A3007 RMK A01 T02510198  RH  072%=      5-min Rain = 0
KRO1 141049Z 04013KT 25/20 A3007 RMK A01 T02510197  RH  072%=      5-min Rain = 0
KRO1 141050Z 04012KT 25/20 A3007 RMK A01 T02510198  RH  072%=      5-min Rain = 0
KRO1 141051Z 04015KT 25/20 A3007 RMK A01 T02500198  RH  073%=      5-min Rain = 0
KRO1 141052Z 04014KT 25/20 A3007 RMK A01 T02500198  RH  073%=      5-min Rain = 0
KRO1 141053Z 04013KT 25/20 A3007 RMK A01 T02500198  RH  073%=      5-min Rain = 0
KRO1 141054Z 04012KT 25/20 A3007 RMK A01 T02500198  RH  073%=      5-min Rain = 0
KRO1 141055Z 04010KT 25/20 A3007 RMK A01 T02500198  RH  073%=      5-min Rain = 0
KRO1 141056Z 03013KT 25/20 A3007 RMK A01 T02490198  RH  073%=      5-min Rain = 0
KRO1 141057Z 04012KT 25/20 A3007 RMK A01 T02500199  RH  073%=      5-min Rain = 0
KRO1 141058Z 04011KT 25/20 A3007 RMK A01 T02490199  RH  073%=      5-min Rain = 0
KRO1 141059Z 04011KT 25/20 A3007 RMK A01 T02490199  RH  074%=      5-min Rain = 0
KRO1 141100Z 04011KT 25/20 A3007 RMK A01 T02480199  RH  074%=      5-min Rain = 0
KRO1 141101Z 04012KT 25/20 A3007 RMK A01 T02480199  RH  074%=      5-min Rain = 0
KRO1 141102Z 04012KT 25/20 A3007 RMK A01 T02490199  RH  074%=      5-min Rain = 0
KRO1 141103Z 04011KT 25/20 A3007 RMK A01 T02480199  RH  074%=      5-min Rain = 0
KRO1 141104Z 04014KT 25/20 A3007 RMK A01 T02480199  RH  074%=      5-min Rain = 0
KRO1 141105Z 03013KT 25/20 A3007 RMK A01 T02480199  RH  074%=      5-min Rain = 0
KRO1 141106Z 04010KT 25/20 A3007 RMK A01 T02480199  RH  074%=      5-min Rain = 0
KRO1 141107Z 04012KT 25/20 A3007 RMK A01 T02480199  RH  074%=      5-min Rain = 0
KRO1 141108Z 04011KT 25/20 A3007 RMK A01 T02480200  RH  075%=      5-min Rain = 0
KRO1 141109Z 04010KT 25/20 A3008 RMK A01 T02480200  RH  075%=      5-min Rain = 0
KRO1 141110Z 04012KT 25/20 A3008 RMK A01 T02480200  RH  075%=      5-min Rain = 0
KRO1 141111Z 04012KT 25/20 A3008 RMK A01 T02470200  RH  075%=      5-min Rain = 0
KRO1 141112Z 04010KT 25/20 A3008 RMK A01 T02470200  RH  075%=      5-min Rain = 0
KRO1 141113Z 04013KT 25/20 A3008 RMK A01 T02470200  RH  075%=      5-min Rain = 0
KRO1 141114Z 04011KT 25/20 A3008 RMK A01 T02470200  RH  075%=      5-min Rain = 0
KRO1 141115Z 04010KT 25/20 A3008 RMK A01 T02470201  RH  075%=      5-min Rain = 0
KRO1 141116Z 04011KT 25/20 A3008 RMK A01 T02470200  RH  075%=      5-min Rain = 0
KRO1 141117Z 04011KT 25/20 A3008 RMK A01 T02470201  RH  076%=      5-min Rain = 0
KRO1 141118Z 03011KT 25/20 A3008 RMK A01 T02470201  RH  076%=      5-min Rain = 0
KRO1 141119Z 03010KT 25/20 A3008 RMK A01 T02460200  RH  076%=      5-min Rain = 0
KRO1 141120Z 03011KT 25/20 A3008 RMK A01 T02460201  RH  076%=      5-min Rain = 0
KRO1 141121Z 03012KT 25/20 A3008 RMK A01 T02460201  RH  076%=      5-min Rain = 0
KRO1 141122Z 03013KT 25/20 A3008 RMK A01 T02460201  RH  076%=      5-min Rain = 0
KRO1 141123Z 03015KT 25/20 A3008 RMK A01 T02460201  RH  076%=      5-min Rain = 0
KRO1 141124Z 03015KT 25/20 A3008 RMK A01 T02460201  RH  076%=      5-min Rain = 0
KRO1 141125Z 03011G17KT 25/20 A3008 RMK A01 T02460201  RH  076%=      5-min Rain = 0
KRO1 141126Z 03014KT 25/20 A3008 RMK A01 T02460201  RH  076%=      5-min Rain = 0
KRO1 141127Z 03011KT 25/20 A3008 RMK A01 T02460201  RH  076%=      5-min Rain = 0
KRO1 141128Z 03011KT 25/20 A3008 RMK A01 T02450201  RH  076%=      5-min Rain = 0
KRO1 141129Z 03010G15KT 25/20 A3008 RMK A01 T02450201  RH  076%=      5-min Rain = 0
KRO1 141130Z 03012KT 25/20 A3008 RMK A01 T02450201  RH  076%=      5-min Rain = 0
KRO1 141131Z 03012KT 25/20 A3008 RMK A01 T02450201  RH  076%=      5-min Rain = 0
KRO1 141132Z 03013KT 25/20 A3008 RMK A01 T02450201  RH  076%=      5-min Rain = 0
KRO1 141133Z 03012KT 25/20 A3008 RMK A01 T02450201  RH  076%=      5-min Rain = 0
KRO1 141134Z 03012KT 25/20 A3008 RMK A01 T02450201  RH  076%=      5-min Rain = 0
KRO1 141135Z 03013KT 25/20 A3008 RMK A01 T02450200  RH  076%=      5-min Rain = 0
KRO1 141136Z 03013KT 25/20 A3008 RMK A01 T02450201  RH  076%=      5-min Rain = 0
KRO1 141137Z 03012KT 25/20 A3008 RMK A01 T02450200  RH  076%=      5-min Rain = 0
KRO1 141138Z 03014KT 24/20 A3009 RMK A01 T02440200  RH  076%=      5-min Rain = 0
KRO1 141139Z 03014KT 24/20 A3009 RMK A01 T02440200  RH  076%=      5-min Rain = 0
KRO1 141140Z 03013KT 24/20 A3009 RMK A01 T02440200  RH  076%=      5-min Rain = 0
KRO1 141141Z 03013KT 24/20 A3009 RMK A01 T02440200  RH  076%=      5-min Rain = 0
KRO1 141142Z 03013KT 24/20 A3009 RMK A01 T02440200  RH  076%=      5-min Rain = 0
KRO1 141143Z 03014KT 24/20 A3008 RMK A01 T02440200  RH  076%=      5-min Rain = 0
KRO1 141144Z 03014KT 24/20 A3008 RMK A01 T02440200  RH  076%=      5-min Rain = 0
KRO1 141145Z 03011KT 24/20 A3008 RMK A01 T02440200  RH  076%=      5-min Rain = 0
KRO1 141146Z 04012KT 24/20 A3008 RMK A01 T02440200  RH  076%=      5-min Rain = 0
KRO1 141147Z 03014KT 24/20 A3008 RMK A01 T02440200  RH  077%=      5-min Rain = 0
KRO1 141148Z 04012KT 24/20 A3008 RMK A01 T02440200  RH  077%=      5-min Rain = 0
KRO1 141149Z 03014KT 24/20 A3009 RMK A01 T02440200  RH  077%=      5-min Rain = 0
KRO1 141150Z 03011KT 24/20 A3009 RMK A01 T02440201  RH  077%=      5-min Rain = 0
KRO1 141151Z 03012KT 24/20 A3009 RMK A01 T02440200  RH  077%=      5-min Rain = 0
KRO1 141152Z 03012KT 24/20 A3009 RMK A01 T02430200  RH  077%=      5-min Rain = 0
KRO1 141153Z 03014KT 24/20 A3009 RMK A01 T02440201  RH  077%=      5-min Rain = 0
KRO1 141154Z 03012KT 24/20 A3009 RMK A01 T02430200  RH  077%=      5-min Rain = 0
KRO1 141155Z 03013KT 24/20 A3009 RMK A01 T02440201  RH  077%=      5-min Rain = 0
KRO1 141156Z 03013G18KT 24/20 A3009 RMK A01 T02430201  RH  077%=      5-min Rain = 0
KRO1 141157Z 03013KT 24/20 A3009 RMK A01 T02430201  RH  077%=      5-min Rain = 0
KRO1 141158Z 02012KT 24/20 A3009 RMK A01 T02430201  RH  077%=      5-min Rain = 0
KRO1 141159Z 03014KT 24/20 A3009 RMK A01 T02430201  RH  077%=      5-min Rain = 0
KRO1 141200Z 03012KT 24/20 A3009 RMK A01 T02430202  RH  078%=      5-min Rain = 0
KRO1 141201Z 03011KT 24/20 A3009 RMK A01 T02430201  RH  078%=      5-min Rain = 0
KRO1 141202Z 03013KT 24/20 A3009 RMK A01 T02430202  RH  078%=      5-min Rain = 0
KRO1 141203Z 02013KT 24/20 A3009 RMK A01 T02430202  RH  078%=      5-min Rain = 0
KRO1 141204Z 02013KT 24/20 A3009 RMK A01 T02430202  RH  078%=      5-min Rain = 0
KRO1 141205Z 02014KT 24/20 A3009 RMK A01 T02430202  RH  078%=      5-min Rain = 0
KRO1 141206Z 03014KT 24/20 A3009 RMK A01 T02430202  RH  078%=      5-min Rain = 0
KRO1 141207Z 03013KT 24/20 A3009 RMK A01 T02430202  RH  078%=      5-min Rain = 0
KRO1 141208Z 03012KT 24/20 A3009 RMK A01 T02430202  RH  078%=      5-min Rain = 0
KRO1 141209Z 03010KT 24/20 A3009 RMK A01 T02430202  RH  078%=      5-min Rain = 0
KRO1 141210Z 03011KT 24/20 A3009 RMK A01 T02430202  RH  078%=      5-min Rain = 0
KRO1 141211Z 03012KT 24/20 A3009 RMK A01 T02430202  RH  078%=      5-min Rain = 0
KRO1 141212Z 03010KT 24/20 A3009 RMK A01 T02420202  RH  078%=      5-min Rain = 0
KRO1 141213Z 03012KT 24/20 A3009 RMK A01 T02430202  RH  078%=      5-min Rain = 0
KRO1 141214Z 02010KT 24/20 A301 RMK A01 T02420202  RH  078%=      5-min Rain = 0
KRO1 141215Z 03011KT 24/20 A301 RMK A01 T02420202  RH  078%=      5-min Rain = 0
KRO1 141216Z 02011KT 24/20 A301 RMK A01 T02420202  RH  078%=      5-min Rain = 0
KRO1 141217Z 02010KT 24/20 A301 RMK A01 T02420202  RH  078%=      5-min Rain = 0
KRO1 141218Z 02013KT 24/20 A301 RMK A01 T02420202  RH  078%=      5-min Rain = 0
KRO1 141219Z 02013KT 24/20 A301 RMK A01 T02420202  RH  078%=      5-min Rain = 0
KRO1 141220Z 03015KT 24/20 A301 RMK A01 T02420202  RH  079%=      5-min Rain = 0
KRO1 141221Z 02013KT 24/20 A301 RMK A01 T02420203  RH  079%=      5-min Rain = 0
KRO1 141222Z 03012KT 24/20 A301 RMK A01 T02420203  RH  079%=      5-min Rain = 0
KRO1 141223Z 03013KT 24/20 A301 RMK A01 T02420203  RH  079%=      5-min Rain = 0
KRO1 141224Z 03012KT 24/20 A301 RMK A01 T02420203  RH  079%=      5-min Rain = 0
KRO1 141225Z 03010KT 24/20 A301 RMK A01 T02420203  RH  079%=      5-min Rain = 0
KRO1 141226Z 03012KT 24/20 A301 RMK A01 T02420203  RH  079%=      5-min Rain = 0
KRO1 141227Z 03011KT 24/20 A301 RMK A01 T02420203  RH  079%=      5-min Rain = 0
KRO1 141228Z 03011KT 24/20 A301 RMK A01 T02410203  RH  079%=      5-min Rain = 0
KRO1 141229Z 03010KT 24/20 A301 RMK A01 T02420203  RH  079%=      5-min Rain = 0
KRO1 141230Z 02011KT 24/20 A301 RMK A01 T02420203  RH  079%=      5-min Rain = 0
KRO1 141231Z 02010KT 24/20 A301 RMK A01 T02420202  RH  079%=      5-min Rain = 0
KRO1 141232Z 02011KT 24/20 A301 RMK A01 T02420202  RH  079%=      5-min Rain = 0
KRO1 141233Z 04011KT 24/20 A301 RMK A01 T02420202  RH  079%=      5-min Rain = 0
KRO1 141234Z 03011KT 24/20 A301 RMK A01 T02420203  RH  079%=      5-min Rain = 0
KRO1 141235Z 03014KT 24/20 A301 RMK A01 T02410203  RH  079%=      5-min Rain = 0
KRO1 141236Z 03013KT 24/20 A301 RMK A01 T02420203  RH  079%=      5-min Rain = 0
KRO1 141237Z 03012KT 24/20 A301 RMK A01 T02420203  RH  079%=      5-min Rain = 0
KRO1 141238Z 03012KT 24/20 A301 RMK A01 T02420203  RH  079%=      5-min Rain = 0
KRO1 141239Z 02014KT 24/20 A301 RMK A01 T02420203  RH  079%=      5-min Rain = 0
KRO1 141240Z 03013KT 24/20 A301 RMK A01 T02420203  RH  079%=      5-min Rain = 0
KRO1 141241Z 03012KT 24/20 A301 RMK A01 T02420203  RH  079%=      5-min Rain = 0
KRO1 141242Z 03011KT 24/20 A301 RMK A01 T02420204  RH  079%=      5-min Rain = 0
KRO1 141243Z 03013KT 24/20 A301 RMK A01 T02420203  RH  079%=      5-min Rain = 0
KRO1 141244Z 02010KT 24/20 A301 RMK A01 T02420203  RH  079%=      5-min Rain = 0
KRO1 141245Z 03012KT 24/20 A301 RMK A01 T02420204  RH  079%=      5-min Rain = 0
KRO1 141246Z 02012KT 24/20 A301 RMK A01 T02420204  RH  079%=      5-min Rain = 0
KRO1 141247Z 02012KT 24/20 A301 RMK A01 T02430204  RH  079%=      5-min Rain = 0
KRO1 141248Z 03011KT 24/20 A301 RMK A01 T02430204  RH  079%=      5-min Rain = 0
KRO1 141249Z 03011KT 24/20 A3011 RMK A01 T02420204  RH  079%=      5-min Rain = 0
KRO1 141250Z 03010KT 24/20 A3011 RMK A01 T02420204  RH  079%=      5-min Rain = 0
KRO1 141251Z 02010KT 24/20 A3011 RMK A01 T02430204  RH  079%=      5-min Rain = 0
KRO1 141252Z 03012KT 24/20 A3011 RMK A01 T02430204  RH  079%=      5-min Rain = 0
KRO1 141253Z 03011KT 24/21 A3011 RMK A01 T02430205  RH  079%=      5-min Rain = 0
KRO1 141254Z 02011G17KT 24/21 A3011 RMK A01 T02430205  RH  079%=      5-min Rain = 0
KRO1 141255Z 02014KT 24/21 A3011 RMK A01 T02430206  RH  080%=      5-min Rain = 0
KRO1 141256Z 03013KT 24/21 A3011 RMK A01 T02420206  RH  080%=      5-min Rain = 0
KRO1 141257Z 03013KT 24/21 A3011 RMK A01 T02420207  RH  080%=      5-min Rain = 0
KRO1 141258Z 03011KT 24/21 A3011 RMK A01 T02420207  RH  080%=      5-min Rain = 0
KRO1 141259Z 02013KT 24/21 A3011 RMK A01 T02420206  RH  081%=      5-min Rain = 0
KRO1 141300Z 02016KT 24/21 A3011 RMK A01 T02430207  RH  080%=      5-min Rain = 0
KRO1 141301Z 02015KT 24/21 A3011 RMK A01 T02430207  RH  080%=      5-min Rain = 0
KRO1 141302Z 03014KT 24/21 A3011 RMK A01 T02420207  RH  080%=      5-min Rain = 0
KRO1 141303Z 02012KT 24/21 A3011 RMK A01 T02430207  RH  081%=      5-min Rain = 0
KRO1 141304Z 02011G16KT 24/21 A3011 RMK A01 T02430208  RH  081%=      5-min Rain = 0
KRO1 141305Z 02013KT 24/21 A3011 RMK A01 T02440208  RH  080%=      5-min Rain = 0
KRO1 141306Z 03009KT 24/21 A3011 RMK A01 T02440208  RH  080%=      5-min Rain = 0
KRO1 141307Z 02011KT 24/21 A3011 RMK A01 T02440208  RH  081%=      5-min Rain = 0
KRO1 141308Z 03013G18KT 24/21 A3011 RMK A01 T02440208  RH  080%=      5-min Rain = 0
KRO1 141309Z 01016KT 24/21 A3011 RMK A01 T02440209  RH  080%=      5-min Rain = 0
KRO1 141310Z 02012KT 24/21 A3011 RMK A01 T02440209  RH  080%=      5-min Rain = 0
KRO1 141311Z 02013KT 25/21 A3011 RMK A01 T02450209  RH  080%=      5-min Rain = 0
KRO1 141312Z 02011KT 25/21 A3011 RMK A01 T02450209  RH  080%=      5-min Rain = 0
KRO1 141313Z 02012KT 25/21 A3011 RMK A01 T02460209  RH  080%=      5-min Rain = 0
KRO1 141314Z 02011KT 25/21 A3011 RMK A01 T02470209  RH  080%=      5-min Rain = 0
KRO1 141315Z 02012KT 25/21 A3011 RMK A01 T02470209  RH  080%=      5-min Rain = 0
KRO1 141316Z 01011KT 25/21 A3011 RMK A01 T02470208  RH  079%=      5-min Rain = 0
KRO1 141317Z 01011KT 25/21 A3012 RMK A01 T02470208  RH  079%=      5-min Rain = 0
KRO1 141318Z 01013KT 25/21 A3012 RMK A01 T02470207  RH  078%=      5-min Rain = 0
KRO1 141319Z 00015KT 25/21 A3012 RMK A01 T02460206  RH  078%=      5-min Rain = 0
KRO1 141320Z 00015KT 25/20 A3012 RMK A01 T02450204  RH  078%=      5-min Rain = 0
KRO1 141321Z 01015KT 24/20 A3012 RMK A01 T02430204  RH  078%=      5-min Rain = 0
KRO1 141322Z 01012KT 24/20 A3012 RMK A01 T02440204  RH  079%=      5-min Rain = 0
KRO1 141323Z 02014KT 24/20 A3012 RMK A01 T02430204  RH  079%=      5-min Rain = 0
KRO1 141324Z 01013KT 24/20 A3012 RMK A01 T02430204  RH  079%=      5-min Rain = 0
KRO1 141325Z 00015KT 24/20 A3012 RMK A01 T02430204  RH  079%=      5-min Rain = 0
KRO1 141326Z 01014KT 24/20 A3012 RMK A01 T02430204  RH  079%=      5-min Rain = 0
KRO1 141327Z 01015KT 24/20 A3012 RMK A01 T02430204  RH  079%=      5-min Rain = 0
KRO1 141328Z 01014KT 24/20 A3012 RMK A01 T02420204  RH  079%=      5-min Rain = 0
KRO1 141329Z 01016KT 24/20 A3012 RMK A01 T02420204  RH  079%=      5-min Rain = 0
KRO1 141330Z 01014KT 24/20 A3012 RMK A01 T02420204  RH  080%=      5-min Rain = 0
KRO1 141331Z 02012KT 24/21 A3012 RMK A01 T02420205  RH  080%=      5-min Rain = 0
KRO1 141332Z 02013G18KT 24/21 A3012 RMK A01 T02420205  RH  080%=      5-min Rain = 0
KRO1 141333Z 02015KT 24/21 A3012 RMK A01 T02420205  RH  080%=      5-min Rain = 0
KRO1 141334Z 01014KT 24/21 A3012 RMK A01 T02410205  RH  080%=      5-min Rain = 0
KRO1 141335Z 02015KT 24/21 A3012 RMK A01 T02410205  RH  080%=      5-min Rain = 0
KRO1 141336Z 01016KT 24/21 A3012 RMK A01 T02410205  RH  080%=      5-min Rain = 0
KRO1 141337Z 02013KT 24/21 A3012 RMK A01 T02410205  RH  080%=      5-min Rain = 0
KRO1 141338Z 01012KT 24/21 A3012 RMK A01 T02410205  RH  080%=      5-min Rain = 0
KRO1 141339Z 01016KT 24/21 A3012 RMK A01 T02410205  RH  080%=      5-min Rain = 0
KRO1 141340Z 01015KT 24/20 A3012 RMK A01 T02410204  RH  080%=      5-min Rain = 0
KRO1 141341Z 01015KT 24/20 A3012 RMK A01 T02410204  RH  080%=      5-min Rain = 0
KRO1 141342Z 01014KT 24/20 A3012 RMK A01 T02410204  RH  080%=      5-min Rain = 0
KRO1 141343Z 01013KT 24/21 A3012 RMK A01 T02410205  RH  080%=      5-min Rain = 0
KRO1 141344Z 02010KT 24/21 A3012 RMK A01 T02420205  RH  080%=      5-min Rain = 0
KRO1 141345Z 02012KT 24/21 A3012 RMK A01 T02430206  RH  080%=      5-min Rain = 0
KRO1 141346Z 02011KT 24/21 A3013 RMK A01 T02430206  RH  080%=      5-min Rain = 0
KRO1 141347Z 02015KT 24/21 A3013 RMK A01 T02440206  RH  079%=      5-min Rain = 0
KRO1 141348Z 02016KT 24/21 A3013 RMK A01 T02440205  RH  079%=      5-min Rain = 0
KRO1 141349Z 02015KT 24/21 A3013 RMK A01 T02440205  RH  079%=      5-min Rain = 0
KRO1 141350Z 02015KT 24/21 A3013 RMK A01 T02430205  RH  079%=      5-min Rain = 0
KRO1 141351Z 02014KT 24/20 A3013 RMK A01 T02440204  RH  079%=      5-min Rain = 0
KRO1 141352Z 02015KT 24/20 A3013 RMK A01 T02440204  RH  079%=      5-min Rain = 0
KRO1 141353Z 02014KT 24/20 A3013 RMK A01 T02430204  RH  079%=      5-min Rain = 0
KRO1 141354Z 02013KT 24/20 A3013 RMK A01 T02430204  RH  078%=      5-min Rain = 0
KRO1 141355Z 02010G15KT 24/20 A3013 RMK A01 T02430204  RH  079%=      5-min Rain = 0
KRO1 141356Z 02015KT 24/20 A3013 RMK A01 T02440204  RH  079%=      5-min Rain = 0
KRO1 141357Z 02013KT 24/20 A3013 RMK A01 T02440203  RH  078%=      5-min Rain = 0
KRO1 141358Z 02012KT 24/20 A3014 RMK A01 T02440203  RH  078%=      5-min Rain = 0
KRO1 141359Z 03013KT 24/20 A3014 RMK A01 T02440204  RH  078%=      5-min Rain = 0
KRO1 141400Z 03013KT 25/20 A3014 RMK A01 T02450204  RH  078%=      5-min Rain = 0
KRO1 141401Z 03013KT 25/20 A3014 RMK A01 T02450204  RH  078%=      5-min Rain = 0
KRO1 141402Z 02013KT 25/20 A3014 RMK A01 T02450204  RH  078%=      5-min Rain = 0
KRO1 141403Z 02014KT 25/20 A3014 RMK A01 T02460204  RH  078%=      5-min Rain = 0
KRO1 141404Z 03014KT 25/20 A3014 RMK A01 T02460204  RH  078%=      5-min Rain = 0
KRO1 141405Z 03015KT 25/20 A3014 RMK A01 T02460204  RH  077%=      5-min Rain = 0
KRO1 141406Z 02010KT 25/20 A3014 RMK A01 T02450204  RH  078%=      5-min Rain = 0
KRO1 141407Z 01011KT 25/20 A3014 RMK A01 T02460204  RH  078%=      5-min Rain = 0
KRO1 141408Z 02014KT 25/20 A3014 RMK A01 T02460204  RH  077%=      5-min Rain = 0
KRO1 141409Z 02010KT 25/20 A3014 RMK A01 T02460203  RH  077%=      5-min Rain = 0
KRO1 141410Z 02011KT 25/20 A3014 RMK A01 T02460203  RH  077%=      5-min Rain = 0
KRO1 141411Z 02010KT 25/20 A3014 RMK A01 T02470204  RH  077%=      5-min Rain = 0
KRO1 141412Z 01011KT 25/20 A3014 RMK A01 T02470203  RH  077%=      5-min Rain = 0
KRO1 141413Z 01011KT 25/20 A3015 RMK A01 T02470202  RH  076%=      5-min Rain = 0
KRO1 141414Z 01013KT 25/20 A3015 RMK A01 T02470202  RH  076%=      5-min Rain = 0
KRO1 141415Z 01014KT 25/20 A3015 RMK A01 T02480202  RH  075%=      5-min Rain = 0
KRO1 141416Z 02013KT 25/20 A3015 RMK A01 T02480202  RH  075%=      5-min Rain = 0
KRO1 141417Z 02015KT 25/20 A3015 RMK A01 T02480202  RH  075%=      5-min Rain = 0
KRO1 141418Z 01013KT 25/20 A3015 RMK A01 T02470201  RH  075%=      5-min Rain = 0
KRO1 141419Z 01012KT 25/20 A3015 RMK A01 T02470201  RH  075%=      5-min Rain = 0
KRO1 141420Z 02012KT 25/20 A3015 RMK A01 T02480201  RH  075%=      5-min Rain = 0
KRO1 141421Z 02011KT 25/20 A3015 RMK A01 T02480201  RH  075%=      5-min Rain = 0
KRO1 141422Z 02011G17KT 25/20 A3015 RMK A01 T02490201  RH  075%=      5-min Rain = 0
KRO1 141423Z 02014KT 25/20 A3015 RMK A01 T02490201  RH  074%=      5-min Rain = 0
KRO1 141424Z 02012KT 25/20 A3015 RMK A01 T02490200  RH  074%=      5-min Rain = 0
KRO1 141425Z 01011KT 25/20 A3015 RMK A01 T02500201  RH  074%=      5-min Rain = 0
KRO1 141426Z 01015KT 25/20 A3015 RMK A01 T02500200  RH  074%=      5-min Rain = 0
KRO1 141427Z 02016KT 25/20 A3015 RMK A01 T02500199  RH  074%=      5-min Rain = 0
KRO1 141428Z 02015KT 25/20 A3016 RMK A01 T02480199  RH  074%=      5-min Rain = 0
KRO1 141429Z 02015KT 25/20 A3016 RMK A01 T02480200  RH  074%=      5-min Rain = 0
KRO1 141430Z 02016KT 25/20 A3016 RMK A01 T02480199  RH  074%=      5-min Rain = 0
KRO1 141431Z 02013KT 25/20 A3016 RMK A01 T02480199  RH  074%=      5-min Rain = 0
KRO1 141432Z 01013KT 25/20 A3016 RMK A01 T02490200  RH  074%=      5-min Rain = 0
KRO1 141433Z 01014KT 25/20 A3016 RMK A01 T02500200  RH  074%=      5-min Rain = 0
KRO1 141434Z 01017KT 25/20 A3016 RMK A01 T02500200  RH  073%=      5-min Rain = 0
KRO1 141435Z 02016KT 25/20 A3016 RMK A01 T02490199  RH  074%=      5-min Rain = 0
KRO1 141436Z 02013KT 25/20 A3016 RMK A01 T02480199  RH  074%=      5-min Rain = 0
KRO1 141437Z 02011KT 25/20 A3016 RMK A01 T02480199  RH  074%=      5-min Rain = 0
KRO1 141438Z 02014KT 25/20 A3016 RMK A01 T02490199  RH  074%=      5-min Rain = 0
KRO1 141439Z 01013KT 25/20 A3016 RMK A01 T02490199  RH  073%=      5-min Rain = 0
KRO1 141440Z 01014KT 25/20 A3016 RMK A01 T02490198  RH  073%=      5-min Rain = 0
KRO1 141441Z 01016KT 25/20 A3016 RMK A01 T02480198  RH  073%=      5-min Rain = 0
KRO1 141442Z 01016KT 25/20 A3016 RMK A01 T02480197  RH  073%=      5-min Rain = 0
KRO1 141443Z 01015KT 25/20 A3016 RMK A01 T02480197  RH  073%=      5-min Rain = 0
KRO1 141444Z 01015KT 25/20 A3016 RMK A01 T02480197  RH  074%=      5-min Rain = 0
KRO1 141445Z 02014KT 25/20 A3016 RMK A01 T02480197  RH  073%=      5-min Rain = 0
KRO1 141446Z 01013KT 25/20 A3016 RMK A01 T02480197  RH  073%=      5-min Rain = 0
KRO1 141447Z 02015KT 25/20 A3016 RMK A01 T02480198  RH  073%=      5-min Rain = 0
KRO1 141448Z 01015KT 25/20 A3016 RMK A01 T02490197  RH  073%=      5-min Rain = 0
KRO1 141449Z 01014KT 25/20 A3016 RMK A01 T02500198  RH  073%=      5-min Rain = 0
KRO1 141450Z 01017KT 25/20 A3016 RMK A01 T02500197  RH  072%=      5-min Rain = 0
KRO1 141451Z 02013KT 25/20 A3016 RMK A01 T02500198  RH  073%=      5-min Rain = 0
KRO1 141452Z 01011KT 25/20 A3016 RMK A01 T02510199  RH  073%=      5-min Rain = 0
KRO1 141453Z 00013KT 25/20 A3016 RMK A01 T02530199  RH  072%=      5-min Rain = 0
KRO1 141454Z 01015KT 25/20 A3016 RMK A01 T02540198  RH  071%=      5-min Rain = 0
KRO1 141455Z 02013KT 25/20 A3016 RMK A01 T02520197  RH  072%=      5-min Rain = 0
KRO1 141456Z 00012KT 25/20 A3016 RMK A01 T02520198  RH  072%=      5-min Rain = 0
KRO1 141457Z 00016KT 25/20 A3016 RMK A01 T02520198  RH  072%=      5-min Rain = 0
KRO1 141458Z 02012KT 25/20 A3016 RMK A01 T02530198  RH  072%=      5-min Rain = 0
KRO1 141459Z 01013KT 25/20 A3016 RMK A01 T02530199  RH  072%=      5-min Rain = 0
KRO1 141500Z 02014KT 25/20 A3016 RMK A01 T02540198  RH  071%=      5-min Rain = 0
KRO1 141501Z 02012KT 25/20 A3017 RMK A01 T02540198  RH  071%=      5-min Rain = 0
KRO1 141502Z 02015KT 25/20 A3017 RMK A01 T02530199  RH  072%=      5-min Rain = 0
KRO1 141503Z 04014KT 25/20 A3017 RMK A01 T02540199  RH  072%=      5-min Rain = 0
KRO1 141504Z 03010KT 25/20 A3017 RMK A01 T02540200  RH  072%=      5-min Rain = 0
KRO1 141505Z 02011KT 25/20 A3017 RMK A01 T02540201  RH  072%=      5-min Rain = 0
KRO1 141506Z 02012KT 26/20 A3017 RMK A01 T02550199  RH  071%=      5-min Rain = 0
KRO1 141507Z 01012KT 25/20 A3016 RMK A01 T02540198  RH  071%=      5-min Rain = 0
KRO1 141508Z 02012G17KT 25/20 A3016 RMK A01 T02530199  RH  072%=      5-min Rain = 0
KRO1 141509Z 02014KT 25/20 A3016 RMK A01 T02540200  RH  072%=      5-min Rain = 0
KRO1 141510Z 03013KT 26/20 A3016 RMK A01 T02560199  RH  071%=      5-min Rain = 0
KRO1 141511Z 03012KT 26/20 A3016 RMK A01 T02550199  RH  071%=      5-min Rain = 0
KRO1 141512Z 02011KT 25/20 A3016 RMK A01 T02540200  RH  072%=      5-min Rain = 0
KRO1 141513Z 02013KT 26/20 A3016 RMK A01 T02560200  RH  071%=      5-min Rain = 0
KRO1 141514Z 01014KT 26/20 A3016 RMK A01 T02570199  RH  070%=      5-min Rain = 0
KRO1 141515Z 01013KT 26/20 A3017 RMK A01 T02550198  RH  071%=      5-min Rain = 0
KRO1 141516Z 02011KT 25/20 A3017 RMK A01 T02530199  RH  072%=      5-min Rain = 0
KRO1 141517Z 02012G17KT 25/20 A3017 RMK A01 T02540200  RH  072%=      5-min Rain = 0
KRO1 141518Z 03015KT 26/20 A3017 RMK A01 T02550200  RH  072%=      5-min Rain = 0
KRO1 141519Z 03014KT 26/20 A3017 RMK A01 T02560200  RH  071%=      5-min Rain = 0
KRO1 141520Z 03013KT 26/20 A3017 RMK A01 T02560200  RH  071%=      5-min Rain = 0
KRO1 141521Z 04008KT 26/20 A3017 RMK A01 T02560200  RH  071%=      5-min Rain = 0
KRO1 141522Z 04012KT 26/20 A3017 RMK A01 T02580201  RH  071%=      5-min Rain = 0
KRO1 141523Z 04011KT 26/20 A3017 RMK A01 T02590200  RH  070%=      5-min Rain = 0
KRO1 141524Z 04011KT 26/20 A3017 RMK A01 T02590201  RH  070%=      5-min Rain = 0
KRO1 141525Z 03013KT 26/20 A3017 RMK A01 T02600200  RH  069%=      5-min Rain = 0
KRO1 141526Z 02015KT 26/20 A3017 RMK A01 T02610200  RH  069%=      5-min Rain = 0
KRO1 141527Z 02012KT 26/20 A3017 RMK A01 T02610199  RH  069%=      5-min Rain = 0
KRO1 141528Z 02010KT 26/20 A3017 RMK A01 T02620201  RH  069%=      5-min Rain = 0
KRO1 141529Z 03009KT 26/20 A3017 RMK A01 T02640202  RH  069%=      5-min Rain = 0
KRO1 141530Z 02011KT 27/20 A3017 RMK A01 T02660203  RH  068%=      5-min Rain = 0
KRO1 141531Z 02013KT 27/20 A3017 RMK A01 T02670200  RH  067%=      5-min Rain = 0
KRO1 141532Z 00010KT 27/20 A3017 RMK A01 T02650200  RH  068%=      5-min Rain = 0
KRO1 141533Z 02010KT 27/20 A3017 RMK A01 T02660202  RH  068%=      5-min Rain = 0
KRO1 141534Z 02011KT 27/20 A3017 RMK A01 T02690203  RH  067%=      5-min Rain = 0
KRO1 141535Z 02010KT 27/20 A3017 RMK A01 T02700201  RH  066%=      5-min Rain = 0
KRO1 141536Z 02010KT 27/20 A3017 RMK A01 T02680202  RH  067%=      5-min Rain = 0
KRO1 141537Z 03013KT 27/20 A3016 RMK A01 T02690201  RH  067%=      5-min Rain = 0
KRO1 141538Z 02012KT 27/20 A3017 RMK A01 T02690202  RH  067%=      5-min Rain = 0
KRO1 141539Z 02010KT 27/20 A3017 RMK A01 T02680201  RH  067%=      5-min Rain = 0
KRO1 141540Z 03010KT 27/20 A3017 RMK A01 T02680201  RH  067%=      5-min Rain = 0
KRO1 141541Z 03014KT 27/20 A3017 RMK A01 T02680201  RH  067%=      5-min Rain = 0
KRO1 141542Z 03011KT 27/20 A3017 RMK A01 T02680202  RH  067%=      5-min Rain = 0
KRO1 141543Z 04009KT 27/20 A3016 RMK A01 T02690202  RH  067%=      5-min Rain = 0
KRO1 141544Z 05010KT 27/20 A3016 RMK A01 T02720204  RH  066%=      5-min Rain = 0
KRO1 141545Z 03011KT 27/20 A3016 RMK A01 T02730203  RH  066%=      5-min Rain = 0
KRO1 141546Z 03009KT 27/20 A3016 RMK A01 T02720202  RH  066%=      5-min Rain = 0
KRO1 141547Z 04009KT 27/20 A3016 RMK A01 T02730203  RH  066%=      5-min Rain = 0
KRO1 141548Z 03013KT 27/20 A3016 RMK A01 T02740203  RH  065%=      5-min Rain = 0
KRO1 141549Z 02012KT 27/20 A3017 RMK A01 T02740202  RH  065%=      5-min Rain = 0
KRO1 141550Z 02010KT 27/20 A3017 RMK A01 T02730202  RH  065%=      5-min Rain = 0
KRO1 141551Z 03011KT 27/20 A3017 RMK A01 T02720202  RH  065%=      5-min Rain = 0
KRO1 141552Z 03011KT 27/20 A3017 RMK A01 T02720201  RH  065%=      5-min Rain = 0
KRO1 141553Z 03010KT 27/20 A3017 RMK A01 T02720201  RH  065%=      5-min Rain = 0
KRO1 141554Z 03010G17KT 27/20 A3017 RMK A01 T02720201  RH  065%=      5-min Rain = 0
KRO1 141555Z 03012KT 27/20 A3017 RMK A01 T02720200  RH  065%=      5-min Rain = 0
KRO1 141556Z 03008KT 27/20 A3017 RMK A01 T02720201  RH  065%=      5-min Rain = 0
KRO1 141557Z 02008KT 27/20 A3017 RMK A01 T02730203  RH  066%=      5-min Rain = 0
KRO1 141558Z 02010KT 28/20 A3017 RMK A01 T02760204  RH  065%=      5-min Rain = 0
KRO1 141559Z 01012KT 28/20 A3016 RMK A01 T02780202  RH  064%=      5-min Rain = 0
KRO1 141600Z 01009KT 28/20 A3017 RMK A01 T02770203  RH  064%=      5-min Rain = 0
KRO1 141601Z 02008KT 28/20 A3017 RMK A01 T02780203  RH  064%=      5-min Rain = 0
KRO1 141602Z 03007KT 28/20 A3017 RMK A01 T02790204  RH  064%=      5-min Rain = 0
KRO1 141603Z 02013KT 28/20 A3017 RMK A01 T02800204  RH  063%=      5-min Rain = 0
KRO1 141604Z 04011KT 28/20 A3017 RMK A01 T02800201  RH  062%=      5-min Rain = 0
KRO1 141605Z 03011KT 28/20 A3017 RMK A01 T02780202  RH  063%=      5-min Rain = 0
KRO1 141606Z 02011KT 28/20 A3017 RMK A01 T02770202  RH  064%=      5-min Rain = 0
KRO1 141607Z 04010KT 28/20 A3017 RMK A01 T02780201  RH  063%=      5-min Rain = 0
KRO1 141608Z 04007KT 28/20 A3016 RMK A01 T02770202  RH  064%=      5-min Rain = 0
KRO1 141609Z 04009KT 28/20 A3016 RMK A01 T02770202  RH  064%=      5-min Rain = 0
KRO1 141610Z 05008KT 28/20 A3016 RMK A01 T02770201  RH  063%=      5-min Rain = 0
KRO1 141611Z 04007KT 28/20 A3016 RMK A01 T02780203  RH  064%=      5-min Rain = 0
KRO1 141612Z 03009KT 28/20 A3016 RMK A01 T02790202  RH  063%=      5-min Rain = 0
KRO1 141613Z 05013KT 28/20 A3016 RMK A01 T02790203  RH  063%=      5-min Rain = 0
KRO1 141614Z 05012KT 28/20 A3016 RMK A01 T02800203  RH  063%=      5-min Rain = 0
KRO1 141615Z 05010KT 28/20 A3016 RMK A01 T02790204  RH  063%=      5-min Rain = 0
KRO1 141616Z 05010KT 28/21 A3016 RMK A01 T02810205  RH  063%=      5-min Rain = 0
KRO1 141617Z 04009KT 28/20 A3016 RMK A01 T02830203  RH  062%=      5-min Rain = 0
KRO1 141618Z 03010KT 28/20 A3016 RMK A01 T02820204  RH  062%=      5-min Rain = 0
KRO1 141619Z 03010KT 28/21 A3016 RMK A01 T02820206  RH  063%=      5-min Rain = 0
KRO1 141620Z 04011KT 29/20 A3016 RMK A01 T02850204  RH  062%=      5-min Rain = 0
KRO1 141621Z 05011KT 28/20 A3016 RMK A01 T02820203  RH  062%=      5-min Rain = 0
KRO1 141622Z 06011KT 28/21 A3016 RMK A01 T02810205  RH  063%=      5-min Rain = 0
KRO1 141623Z 05008KT 28/20 A3016 RMK A01 T02830204  RH  062%=      5-min Rain = 0
KRO1 141624Z 04006KT 28/20 A3016 RMK A01 T02830203  RH  062%=      5-min Rain = 0
KRO1 141625Z 05009KT 28/20 A3016 RMK A01 T02820203  RH  062%=      5-min Rain = 0
KRO1 141626Z 06011KT 28/20 A3016 RMK A01 T02820203  RH  062%=      5-min Rain = 0
KRO1 141627Z 05010KT 28/20 A3016 RMK A01 T02810203  RH  063%=      5-min Rain = 0
KRO1 141628Z 03007KT 28/21 A3016 RMK A01 T02810205  RH  063%=      5-min Rain = 0
KRO1 141629Z 03011KT 28/21 A3016 RMK A01 T02840205  RH  062%=      5-min Rain = 0
KRO1 141630Z 03011KT 29/21 A3016 RMK A01 T02870205  RH  061%=      5-min Rain = 0
KRO1 141631Z 03010KT 29/21 A3016 RMK A01 T02870205  RH  061%=      5-min Rain = 0
KRO1 141632Z 03009KT 29/20 A3016 RMK A01 T02860204  RH  061%=      5-min Rain = 0
KRO1 141633Z 03007KT 28/20 A3016 RMK A01 T02830203  RH  062%=      5-min Rain = 0
KRO1 141634Z 03010KT 29/21 A3016 RMK A01 T02850206  RH  062%=      5-min Rain = 0
KRO1 141635Z 05012KT 29/21 A3016 RMK A01 T02880207  RH  061%=      5-min Rain = 0
KRO1 141636Z 05011KT 29/21 A3016 RMK A01 T02900205  RH  060%=      5-min Rain = 0
KRO1 141637Z 06009KT 29/21 A3016 RMK A01 T02880205  RH  061%=      5-min Rain = 0
KRO1 141638Z 06010KT 29/21 A3016 RMK A01 T02870205  RH  061%=      5-min Rain = 0
KRO1 141639Z 05008KT 29/21 A3016 RMK A01 T02880206  RH  061%=      5-min Rain = 0
KRO1 141640Z 05011KT 29/21 A3016 RMK A01 T02900207  RH  061%=      5-min Rain = 0
KRO1 141641Z 06008KT 29/21 A3015 RMK A01 T02910205  RH  060%=      5-min Rain = 0
KRO1 141642Z 03008KT 29/21 A3015 RMK A01 T02900207  RH  061%=      5-min Rain = 0
KRO1 141643Z 03007KT 29/20 A3015 RMK A01 T02900203  RH  060%=      5-min Rain = 0
KRO1 141644Z 04007KT 29/20 A3015 RMK A01 T02880204  RH  060%=      5-min Rain = 0
KRO1 141645Z 06007KT 29/20 A3015 RMK A01 T02890204  RH  060%=      5-min Rain = 0
KRO1 141646Z 06011KT 29/21 A3015 RMK A01 T02910207  RH  060%=      5-min Rain = 0
KRO1 141647Z 06011KT 29/21 A3015 RMK A01 T02920207  RH  060%=      5-min Rain = 0
KRO1 141648Z 05010KT 29/21 A3015 RMK A01 T02930207  RH  060%=      5-min Rain = 0
KRO1 141649Z 05008KT 29/21 A3015 RMK A01 T02930206  RH  059%=      5-min Rain = 0
KRO1 141650Z 07009KT 29/21 A3015 RMK A01 T02920207  RH  060%=      5-min Rain = 0
KRO1 141651Z 05009KT 29/21 A3015 RMK A01 T02930207  RH  060%=      5-min Rain = 0
KRO1 141652Z 04009KT 29/21 A3015 RMK A01 T02930205  RH  059%=      5-min Rain = 0
KRO1 141653Z 02009KT 29/21 A3015 RMK A01 T02930206  RH  059%=      5-min Rain = 0
KRO1 141654Z 04008KT 29/21 A3015 RMK A01 T02940205  RH  059%=      5-min Rain = 0
KRO1 141655Z 02012KT 29/21 A3015 RMK A01 T02930206  RH  060%=      5-min Rain = 0
KRO1 141656Z 03011KT 29/21 A3015 RMK A01 T02930206  RH  059%=      5-min Rain = 0
KRO1 141657Z 02009KT 29/21 A3015 RMK A01 T02930205  RH  059%=      5-min Rain = 0
KRO1 141658Z 03007KT 29/21 A3015 RMK A01 T02910205  RH  060%=      5-min Rain = 0
KRO1 141659Z 03005KT 29/21 A3015 RMK A01 T02920205  RH  060%=      5-min Rain = 0
KRO1 141700Z 02005KT 29/21 A3015 RMK A01 T02930205  RH  059%=      5-min Rain = 0
KRO1 141701Z 04007KT 30/21 A3015 RMK A01 T02960205  RH  058%=      5-min Rain = 0
KRO1 141702Z 05010KT 30/21 A3014 RMK A01 T02970207  RH  058%=      5-min Rain = 0
KRO1 141703Z 05011KT 30/21 A3014 RMK A01 T02990206  RH  058%=      5-min Rain = 0
KRO1 141704Z 05010KT 30/21 A3014 RMK A01 T02980206  RH  058%=      5-min Rain = 0
KRO1 141705Z 05009KT 30/21 A3015 RMK A01 T02970207  RH  059%=      5-min Rain = 0
KRO1 141706Z 06006KT 30/21 A3015 RMK A01 T02970206  RH  058%=      5-min Rain = 0
KRO1 141707Z 07005KT 30/21 A3015 RMK A01 T02980206  RH  058%=      5-min Rain = 0
KRO1 141708Z 06007KT 30/21 A3014 RMK A01 T02990206  RH  058%=      5-min Rain = 0
KRO1 141709Z 05009KT 30/21 A3014 RMK A01 T03000208  RH  058%=      5-min Rain = 0
KRO1 141710Z 04009KT 30/21 A3014 RMK A01 T03020207  RH  057%=      5-min Rain = 0
KRO1 141711Z 04012KT 30/21 A3014 RMK A01 T03040206  RH  056%=      5-min Rain = 0
KRO1 141712Z 03010KT 30/20 A3014 RMK A01 T03040204  RH  055%=      5-min Rain = 0
KRO1 141713Z 02007KT 30/20 A3014 RMK A01 T03010202  RH  056%=      5-min Rain = 0
KRO1 141714Z 02007KT 30/20 A3014 RMK A01 T02990203  RH  056%=      5-min Rain = 0
KRO1 141715Z 05005KT 30/20 A3014 RMK A01 T02980203  RH  057%=      5-min Rain = 0
KRO1 141716Z 03006KT 30/21 A3014 RMK A01 T03000208  RH  058%=      5-min Rain = 0
KRO1 141717Z 05005KT 31/21 A3014 RMK A01 T03060206  RH  055%=      5-min Rain = 0
KRO1 141718Z 03006KT 31/21 A3014 RMK A01 T03060208  RH  056%=      5-min Rain = 0
KRO1 141719Z 04008KT 31/21 A3014 RMK A01 T03060206  RH  055%=      5-min Rain = 0
KRO1 141720Z 05010KT 31/21 A3014 RMK A01 T03060206  RH  055%=      5-min Rain = 0
KRO1 141721Z 06007KT 31/21 A3014 RMK A01 T03060205  RH  055%=      5-min Rain = 0
KRO1 141722Z 07008KT 31/20 A3014 RMK A01 T03050204  RH  055%=      5-min Rain = 0
KRO1 141723Z 06007KT 31/21 A3014 RMK A01 T03050205  RH  055%=      5-min Rain = 0
KRO1 141724Z 06010KT 31/21 A3014 RMK A01 T03060205  RH  055%=      5-min Rain = 0
KRO1 141725Z 03008KT 31/21 A3014 RMK A01 T03080208  RH  055%=      5-min Rain = 0
KRO1 141726Z 01008KT 31/21 A3014 RMK A01 T03100206  RH  054%=      5-min Rain = 0
KRO1 141727Z 05006G12KT 31/21 A3014 RMK A01 T03100205  RH  054%=      5-min Rain = 0
KRO1 141728Z 04009KT 31/20 A3013 RMK A01 T03100204  RH  053%=      5-min Rain = 0
KRO1 141729Z 04011KT 31/21 A3013 RMK A01 T03100205  RH  053%=      5-min Rain = 0
KRO1 141730Z 04010KT 31/20 A3013 RMK A01 T03090202  RH  053%=      5-min Rain = 0
KRO1 141731Z 03011KT 31/20 A3013 RMK A01 T03060203  RH  054%=      5-min Rain = 0
KRO1 141732Z 01011KT 31/20 A3013 RMK A01 T03070202  RH  054%=      5-min Rain = 0
KRO1 141733Z 01009KT 31/20 A3013 RMK A01 T03060201  RH  053%=      5-min Rain = 0
KRO1 141734Z 01006KT 31/20 A3013 RMK A01 T03060202  RH  054%=      5-min Rain = 0
KRO1 141735Z 03007KT 31/20 A3013 RMK A01 T03060203  RH  054%=      5-min Rain = 0
KRO1 141736Z 01010KT 31/20 A3013 RMK A01 T03070204  RH  054%=      5-min Rain = 0
KRO1 141737Z 00011KT 31/21 A3013 RMK A01 T03110205  RH  053%=      5-min Rain = 0
KRO1 141738Z 00009KT 31/20 A3013 RMK A01 T03130202  RH  052%=      5-min Rain = 0
KRO1 141739Z 03008KT 31/20 A3013 RMK A01 T03120203  RH  052%=      5-min Rain = 0
KRO1 141740Z 04007KT 31/21 A3013 RMK A01 T03110205  RH  053%=      5-min Rain = 0
KRO1 141741Z 04007KT 31/21 A3013 RMK A01 T03110205  RH  053%=      5-min Rain = 0
KRO1 141742Z 01007KT 31/21 A3013 RMK A01 T03120207  RH  054%=      5-min Rain = 0
KRO1 141743Z 02007G12KT 32/21 A3013 RMK A01 T03170207  RH  052%=      5-min Rain = 0
KRO1 141744Z 01008KT 32/21 A3013 RMK A01 T03160205  RH  052%=      5-min Rain = 0
KRO1 141745Z 35010KT 31/21 A3013 RMK A01 T03140205  RH  053%=      5-min Rain = 0
KRO1 141746Z 01009KT 31/20 A3013 RMK A01 T03140203  RH  052%=      5-min Rain = 0
KRO1 141747Z 03006KT 31/20 A3012 RMK A01 T03130204  RH  052%=      5-min Rain = 0
KRO1 141748Z 05005G11KT 31/20 A3012 RMK A01 T03130203  RH  052%=      5-min Rain = 0
KRO1 141749Z 05009KT 32/20 A3012 RMK A01 T03150203  RH  051%=      5-min Rain = 0
KRO1 141750Z 06010KT 32/20 A3012 RMK A01 T03160204  RH  052%=      5-min Rain = 0
KRO1 141751Z 07011KT 32/20 A3012 RMK A01 T03170204  RH  051%=      5-min Rain = 0
KRO1 141752Z 07008KT 32/20 A3012 RMK A01 T03170201  RH  050%=      5-min Rain = 0
KRO1 141753Z 06012KT 32/20 A3012 RMK A01 T03170203  RH  051%=      5-min Rain = 0
KRO1 141754Z 04011KT 32/20 A3012 RMK A01 T03160204  RH  052%=      5-min Rain = 0
KRO1 141755Z 04014KT 32/21 A3012 RMK A01 T03150206  RH  052%=      5-min Rain = 0
KRO1 141756Z 04012G17KT 32/20 A3012 RMK A01 T03160204  RH  051%=      5-min Rain = 0
KRO1 141757Z 04009KT 31/20 A3012 RMK A01 T03140202  RH  052%=      5-min Rain = 0
KRO1 141758Z 04011KT 31/20 A3012 RMK A01 T03130202  RH  052%=      5-min Rain = 0
KRO1 141759Z 05010KT 31/20 A3012 RMK A01 T03130200  RH  051%=      5-min Rain = 0
KRO1 141800Z 04010KT 31/20 A3012 RMK A01 T03120201  RH  052%=      5-min Rain = 0
KRO1 141801Z 04007KT 31/20 A3012 RMK A01 T03110198  RH  051%=      5-min Rain = 0
KRO1 141802Z 04008KT 31/20 A3012 RMK A01 T03090199  RH  052%=      5-min Rain = 0
KRO1 141803Z 04008KT 31/20 A3012 RMK A01 T03110200  RH  052%=      5-min Rain = 0
KRO1 141804Z 04012KT 31/20 A3012 RMK A01 T03130204  RH  052%=      5-min Rain = 0
KRO1 141805Z 03010KT 32/21 A3012 RMK A01 T03180206  RH  052%=      5-min Rain = 0
KRO1 141806Z 05007KT 32/21 A3012 RMK A01 T03200205  RH  051%=      5-min Rain = 0
KRO1 141807Z 04005KT 32/21 A3012 RMK A01 T03200206  RH  051%=      5-min Rain = 0
KRO1 141808Z 04009KT 32/20 A3011 RMK A01 T03210203  RH  050%=      5-min Rain = 0
KRO1 141809Z 04011KT 32/20 A3011 RMK A01 T03210204  RH  050%=      5-min Rain = 0
KRO1 141810Z 04014KT 32/20 A3011 RMK A01 T03200202  RH  050%=      5-min Rain = 0
KRO1 141811Z 05013KT 32/20 A3011 RMK A01 T03170202  RH  050%=      5-min Rain = 0
KRO1 141812Z 05011KT 32/20 A3011 RMK A01 T03170200  RH  050%=      5-min Rain = 0
KRO1 141813Z 04010KT 32/20 A3011 RMK A01 T03150201  RH  051%=      5-min Rain = 0
KRO1 141814Z 03009KT 32/20 A3011 RMK A01 T03160202  RH  051%=      5-min Rain = 0
KRO1 141815Z 03006KT 32/20 A3011 RMK A01 T03190200  RH  050%=      5-min Rain = 0
KRO1 141816Z 04007KT 32/20 A3011 RMK A01 T03170199  RH  050%=      5-min Rain = 0
KRO1 141817Z 05011KT 32/20 A3011 RMK A01 T03170200  RH  050%=      5-min Rain = 0
KRO1 141818Z 05011KT 32/20 A3011 RMK A01 T03180200  RH  050%=      5-min Rain = 0
KRO1 141819Z 03013KT 32/20 A3011 RMK A01 T03180202  RH  050%=      5-min Rain = 0
KRO1 141820Z 03011KT 32/20 A3011 RMK A01 T03180201  RH  050%=      5-min Rain = 0
KRO1 141821Z 03008KT 32/20 A3011 RMK A01 T03160199  RH  050%=      5-min Rain = 0
KRO1 141822Z 02005KT 32/20 A3011 RMK A01 T03150201  RH  051%=      5-min Rain = 0
KRO1 141823Z 02003KT 32/20 A3011 RMK A01 T03180200  RH  050%=      5-min Rain = 0
KRO1 141824Z 03003KT 32/20 A3011 RMK A01 T03200199  RH  049%=      5-min Rain = 0
KRO1 141825Z 06008KT 32/20 A3011 RMK A01 T03210201  RH  049%=      5-min Rain = 0
KRO1 141826Z 07011KT 32/20 A3011 RMK A01 T03230199  RH  048%=      5-min Rain = 0
KRO1 141827Z 07012KT 32/20 A3011 RMK A01 T03230201  RH  049%=      5-min Rain = 0
KRO1 141828Z 05013G18KT 32/20 A3011 RMK A01 T03230203  RH  049%=      5-min Rain = 0
KRO1 141829Z 04015KT 32/20 A3011 RMK A01 T03230200  RH  048%=      5-min Rain = 0
KRO1 141830Z 03011KT 32/20 A3011 RMK A01 T03230200  RH  048%=      5-min Rain = 0
KRO1 141831Z 03011KT 32/20 A3011 RMK A01 T03230200  RH  048%=      5-min Rain = 0
KRO1 141832Z 03010KT 32/20 A3011 RMK A01 T03210201  RH  049%=      5-min Rain = 0
KRO1 141833Z 04009KT 32/20 A3011 RMK A01 T03190201  RH  050%=      5-min Rain = 0
KRO1 141834Z 03007KT 32/20 A3011 RMK A01 T03180202  RH  050%=      5-min Rain = 0
KRO1 141835Z 02009KT 32/20 A3011 RMK A01 T03220203  RH  049%=      5-min Rain = 0
KRO1 141836Z 04007KT 32/20 A3011 RMK A01 T03240201  RH  049%=      5-min Rain = 0
KRO1 141837Z 04013KT 32/20 A301 RMK A01 T03240201  RH  048%=      5-min Rain = 0
KRO1 141838Z 05012KT 33/20 A301 RMK A01 T03260198  RH  047%=      5-min Rain = 0
KRO1 141839Z 04015KT 33/20 A301 RMK A01 T03280202  RH  048%=      5-min Rain = 0
KRO1 141840Z 02012KT 33/20 A301 RMK A01 T03290199  RH  046%=      5-min Rain = 0
KRO1 141841Z 02008KT 32/20 A301 RMK A01 T03240197  RH  047%=      5-min Rain = 0
KRO1 141842Z 04007KT 32/20 A301 RMK A01 T03220197  RH  048%=      5-min Rain = 0
KRO1 141843Z 05007KT 32/20 A301 RMK A01 T03240198  RH  047%=      5-min Rain = 0
KRO1 141844Z 05008G13KT 32/20 A301 RMK A01 T03240200  RH  048%=      5-min Rain = 0
KRO1 141845Z 05012KT 33/20 A301 RMK A01 T03260198  RH  047%=      5-min Rain = 0
KRO1 141846Z 05013KT 33/19 A301 RMK A01 T03270194  RH  045%=      5-min Rain = 0
KRO1 141847Z 04012KT 33/20 A301 RMK A01 T03290195  RH  045%=      5-min Rain = 0
KRO1 141848Z 06009KT 33/20 A301 RMK A01 T03280196  RH  046%=      5-min Rain = 0
KRO1 141849Z 03009KT 33/20 A301 RMK A01 T03280196  RH  046%=      5-min Rain = 0
KRO1 141850Z 04007KT 33/19 A301 RMK A01 T03270193  RH  045%=      5-min Rain = 0
KRO1 141851Z 04011KT 33/20 A301 RMK A01 T03260198  RH  047%=      5-min Rain = 0
KRO1 141852Z 04008KT 33/20 A301 RMK A01 T03280200  RH  047%=      5-min Rain = 0
KRO1 141853Z 03007KT 33/20 A301 RMK A01 T03260200  RH  047%=      5-min Rain = 0
KRO1 141854Z 03008KT 33/20 A301 RMK A01 T03270200  RH  047%=      5-min Rain = 0
KRO1 141855Z 06008KT 33/20 A301 RMK A01 T03290204  RH  048%=      5-min Rain = 0
KRO1 141856Z 06006KT 33/21 A301 RMK A01 T03310205  RH  048%=      5-min Rain = 0
KRO1 141857Z 03007KT 33/20 A301 RMK A01 T03340203  RH  046%=      5-min Rain = 0
KRO1 141858Z 04005KT 33/20 A301 RMK A01 T03330199  RH  045%=      5-min Rain = 0
KRO1 141859Z 06008KT 33/20 A301 RMK A01 T03300200  RH  046%=      5-min Rain = 0
KRO1 141900Z 05014KT 33/20 A3009 RMK A01 T03300197  RH  046%=      5-min Rain = 0
KRO1 141901Z 04015KT 33/19 A3009 RMK A01 T03290191  RH  044%=      5-min Rain = 0
KRO1 141902Z 05013KT 33/19 A3009 RMK A01 T03280193  RH  045%=      5-min Rain = 0
KRO1 141903Z 05011KT 33/19 A3009 RMK A01 T03290193  RH  045%=      5-min Rain = 0
KRO1 141904Z 06009KT 33/19 A3009 RMK A01 T03290192  RH  044%=      5-min Rain = 0
KRO1 141905Z 06010KT 33/20 A3009 RMK A01 T03290196  RH  045%=      5-min Rain = 0
KRO1 141906Z 05006KT 33/19 A3009 RMK A01 T03300192  RH  044%=      5-min Rain = 0
KRO1 141907Z 05008KT 33/19 A3009 RMK A01 T03270194  RH  045%=      5-min Rain = 0
KRO1 141908Z 05010KT 33/20 A3009 RMK A01 T03270195  RH  046%=      5-min Rain = 0
KRO1 141909Z 06009KT 33/20 A3009 RMK A01 T03280195  RH  046%=      5-min Rain = 0
KRO1 141910Z 07011KT 33/20 A3009 RMK A01 T03300200  RH  046%=      5-min Rain = 0
KRO1 141911Z 06009KT 33/20 A3009 RMK A01 T03330200  RH  046%=      5-min Rain = 0
KRO1 141912Z 07007KT 33/20 A3009 RMK A01 T03330197  RH  045%=      5-min Rain = 0
KRO1 141913Z 08007KT 33/20 A3009 RMK A01 T03320197  RH  045%=      5-min Rain = 0
KRO1 141914Z 07007KT 33/20 A3009 RMK A01 T03320196  RH  045%=      5-min Rain = 0
KRO1 141915Z 07012KT 33/20 A3009 RMK A01 T03340197  RH  045%=      5-min Rain = 0
KRO1 141916Z 07010KT 34/20 A3009 RMK A01 T03350195  RH  044%=      5-min Rain = 0
KRO1 141917Z 07014KT 34/20 A3009 RMK A01 T03350196  RH  044%=      5-min Rain = 0
KRO1 141918Z 06014KT 34/19 A3009 RMK A01 T03350194  RH  044%=      5-min Rain = 0
KRO1 141919Z 07011KT 33/20 A3009 RMK A01 T03330198  RH  045%=      5-min Rain = 0
KRO1 141920Z 07010KT 33/20 A3009 RMK A01 T03340195  RH  044%=      5-min Rain = 0
KRO1 141921Z 08009KT 33/20 A3009 RMK A01 T03330195  RH  044%=      5-min Rain = 0
KRO1 141922Z 08009KT 33/19 A3009 RMK A01 T03320191  RH  044%=      5-min Rain = 0
KRO1 141923Z 08009KT 33/19 A3009 RMK A01 T03330193  RH  044%=      5-min Rain = 0
KRO1 141924Z 07007KT 33/19 A3009 RMK A01 T03330191  RH  043%=      5-min Rain = 0
KRO1 141925Z 06007KT 33/19 A3009 RMK A01 T03320190  RH  043%=      5-min Rain = 0
KRO1 141926Z 05014KT 33/19 A3009 RMK A01 T03310194  RH  044%=      5-min Rain = 0
KRO1 141927Z 06015KT 33/20 A3009 RMK A01 T03330195  RH  044%=      5-min Rain = 0
KRO1 141928Z 05011KT 33/20 A3009 RMK A01 T03320196  RH  045%=      5-min Rain = 0
KRO1 141929Z 07011KT 33/20 A3009 RMK A01 T03330199  RH  045%=      5-min Rain = 0
KRO1 141930Z 06008KT 33/20 A3009 RMK A01 T03340196  RH  044%=      5-min Rain = 0
KRO1 141931Z 06008KT 33/20 A3009 RMK A01 T03320197  RH  045%=      5-min Rain = 0
KRO1 141932Z 07009KT 33/20 A3009 RMK A01 T03310195  RH  045%=      5-min Rain = 0
KRO1 141933Z 06007KT 33/19 A3009 RMK A01 T03290194  RH  045%=      5-min Rain = 0
KRO1 141934Z 07005KT 33/20 A3009 RMK A01 T03280195  RH  045%=      5-min Rain = 0
KRO1 141935Z 05005KT 33/19 A3009 RMK A01 T03300194  RH  045%=      5-min Rain = 0
KRO1 141936Z 06008G13KT 33/20 A3008 RMK A01 T03320197  RH  045%=      5-min Rain = 0
KRO1 141937Z 07009KT 34/20 A3008 RMK A01 T03350197  RH  044%=      5-min Rain = 0
KRO1 141938Z 07006KT 34/20 A3008 RMK A01 T03350195  RH  044%=      5-min Rain = 0
KRO1 141939Z 06011KT 34/20 A3008 RMK A01 T03350198  RH  045%=      5-min Rain = 0
KRO1 141940Z 05012KT 34/20 A3008 RMK A01 T03360196  RH  044%=      5-min Rain = 0
KRO1 141941Z 05012KT 34/19 A3008 RMK A01 T03370194  RH  043%=      5-min Rain = 0
KRO1 141942Z 04009KT 34/20 A3008 RMK A01 T03360196  RH  044%=      5-min Rain = 0
KRO1 141943Z 03010KT 34/20 A3008 RMK A01 T03360195  RH  044%=      5-min Rain = 0
KRO1 141944Z 03010KT 34/19 A3008 RMK A01 T03350194  RH  043%=      5-min Rain = 0
KRO1 141945Z 03011KT 34/19 A3008 RMK A01 T03350191  RH  043%=      5-min Rain = 0
KRO1 141946Z 05018KT 34/19 A3008 RMK A01 T03350190  RH  042%=      5-min Rain = 0
KRO1 141947Z 05011KT 34/19 A3008 RMK A01 T03350190  RH  042%=      5-min Rain = 0
KRO1 141948Z 05011KT 33/19 A3008 RMK A01 T03340190  RH  043%=      5-min Rain = 0
KRO1 141949Z 05009KT 34/19 A3008 RMK A01 T03350187  RH  042%=      5-min Rain = 0
KRO1 141950Z 04013KT 34/19 A3008 RMK A01 T03350191  RH  043%=      5-min Rain = 0
KRO1 141951Z 04012KT 33/19 A3008 RMK A01 T03340192  RH  043%=      5-min Rain = 0
KRO1 141952Z 02011KT 33/19 A3008 RMK A01 T03340193  RH  044%=      5-min Rain = 0
KRO1 141953Z 01009KT 33/19 A3008 RMK A01 T03330193  RH  044%=      5-min Rain = 0
KRO1 141954Z 03007KT 34/20 A3008 RMK A01 T03370196  RH  044%=      5-min Rain = 0
KRO1 141955Z 05009KT 34/20 A3008 RMK A01 T03380195  RH  043%=      5-min Rain = 0
KRO1 141956Z 05012KT 34/20 A3008 RMK A01 T03370195  RH  043%=      5-min Rain = 0
KRO1 141957Z 03010KT 33/19 A3008 RMK A01 T03340193  RH  043%=      5-min Rain = 0
KRO1 141958Z 04010KT 33/19 A3007 RMK A01 T03320193  RH  044%=      5-min Rain = 0
KRO1 141959Z 03007KT 33/20 A3007 RMK A01 T03320195  RH  044%=      5-min Rain = 0
KRO1 142000Z 01007KT 34/20 A3007 RMK A01 T03360196  RH  044%=      5-min Rain = 0
KRO1 142001Z 05006KT 34/19 A3007 RMK A01 T03380193  RH  043%=      5-min Rain = 0
KRO1 142002Z 06011KT 34/20 A3007 RMK A01 T03380196  RH  043%=      5-min Rain = 0
KRO1 142003Z 06015KT 34/19 A3007 RMK A01 T03400191  RH  041%=      5-min Rain = 0
KRO1 142004Z 06014KT 34/19 A3007 RMK A01 T03390191  RH  042%=      5-min Rain = 0
KRO1 142005Z 06014KT 34/19 A3007 RMK A01 T03370192  RH  042%=      5-min Rain = 0
KRO1 142006Z 06013KT 34/19 A3007 RMK A01 T03370191  RH  042%=      5-min Rain = 0
KRO1 142007Z 06011KT 33/19 A3007 RMK A01 T03340193  RH  043%=      5-min Rain = 0
KRO1 142008Z 06010KT 33/19 A3007 RMK A01 T03330191  RH  043%=      5-min Rain = 0
KRO1 142009Z 06008KT 33/19 A3006 RMK A01 T03330193  RH  044%=      5-min Rain = 0
KRO1 142010Z 06011KT 33/19 A3006 RMK A01 T03340194  RH  044%=      5-min Rain = 0
KRO1 142011Z 08008KT 33/19 A3006 RMK A01 T03340191  RH  043%=      5-min Rain = 0
KRO1 142012Z 07010KT 33/19 A3006 RMK A01 T03340193  RH  044%=      5-min Rain = 0
KRO1 142013Z 07012KT 33/19 A3006 RMK A01 T03340192  RH  043%=      5-min Rain = 0
KRO1 142014Z 06010KT 34/19 A3006 RMK A01 T03350189  RH  042%=      5-min Rain = 0
KRO1 142015Z 06010KT 34/19 A3006 RMK A01 T03350189  RH  042%=      5-min Rain = 0
KRO1 142016Z 07006KT 34/19 A3006 RMK A01 T03350188  RH  042%=      5-min Rain = 0
KRO1 142017Z 06008KT 34/19 A3006 RMK A01 T03360190  RH  042%=      5-min Rain = 0
KRO1 142018Z 05013KT 34/19 A3005 RMK A01 T03360191  RH  042%=      5-min Rain = 0
KRO1 142019Z 04012KT 34/19 A3005 RMK A01 T03380191  RH  042%=      5-min Rain = 0
KRO1 142020Z 04012KT 34/19 A3005 RMK A01 T03390189  RH  041%=      5-min Rain = 0
KRO1 142021Z 03013KT 34/19 A3005 RMK A01 T03370188  RH  041%=      5-min Rain = 0
KRO1 142022Z 03012KT 34/19 A3005 RMK A01 T03350190  RH  042%=      5-min Rain = 0
KRO1 142023Z 02010KT 34/19 A3005 RMK A01 T03360189  RH  042%=      5-min Rain = 0
KRO1 142024Z 02007KT 34/19 A3005 RMK A01 T03380187  RH  041%=      5-min Rain = 0
KRO1 142025Z 03007KT 34/19 A3005 RMK A01 T03380190  RH  042%=      5-min Rain = 0
KRO1 142026Z 05010KT 34/19 A3005 RMK A01 T03400191  RH  041%=      5-min Rain = 0
KRO1 142027Z 05009KT 34/19 A3005 RMK A01 T03410191  RH  041%=      5-min Rain = 0
KRO1 142028Z 09008KT 34/19 A3005 RMK A01 T03400192  RH  042%=      5-min Rain = 0
KRO1 142029Z 10009KT 34/19 A3005 RMK A01 T03420188  RH  040%=      5-min Rain = 0
KRO1 142030Z 07009KT 34/19 A3005 RMK A01 T03420188  RH  040%=      5-min Rain = 0
KRO1 142031Z 05008KT 34/19 A3005 RMK A01 T03410190  RH  041%=      5-min Rain = 0
KRO1 142032Z 05008G13KT 34/19 A3005 RMK A01 T03400192  RH  042%=      5-min Rain = 0
KRO1 142033Z 03012KT 34/19 A3005 RMK A01 T03400190  RH  041%=      5-min Rain = 0
KRO1 142034Z 03010KT 34/19 A3005 RMK A01 T03380190  RH  042%=      5-min Rain = 0
KRO1 142035Z 01008KT 34/19 A3005 RMK A01 T03380192  RH  042%=      5-min Rain = 0
KRO1 142036Z 03007G15KT 34/19 A3005 RMK A01 T03370189  RH  042%=      5-min Rain = 0
KRO1 142037Z 05016KT 34/19 A3005 RMK A01 T03370189  RH  042%=      5-min Rain = 0
KRO1 142038Z 05014KT 34/19 A3004 RMK A01 T03370189  RH  042%=      5-min Rain = 0
KRO1 142039Z 05012KT 34/19 A3005 RMK A01 T03380190  RH  042%=      5-min Rain = 0
KRO1 142040Z 04010KT 34/19 A3005 RMK A01 T03390188  RH  041%=      5-min Rain = 0
KRO1 142041Z 08011KT 34/19 A3005 RMK A01 T03380188  RH  041%=      5-min Rain = 0
KRO1 142042Z 08010KT 34/19 A3005 RMK A01 T03390185  RH  040%=      5-min Rain = 0
KRO1 142043Z 08008G13KT 34/19 A3005 RMK A01 T03410186  RH  040%=      5-min Rain = 0
KRO1 142044Z 05012KT 34/19 A3004 RMK A01 T03420190  RH  041%=      5-min Rain = 0
KRO1 142045Z 07015KT 34/19 A3004 RMK A01 T03420188  RH  040%=      5-min Rain = 0
KRO1 142046Z 07011KT 34/19 A3005 RMK A01 T03410186  RH  040%=      5-min Rain = 0
KRO1 142047Z 08007KT 34/19 A3004 RMK A01 T03380186  RH  041%=      5-min Rain = 0
KRO1 142048Z 07007KT 34/19 A3004 RMK A01 T03390188  RH  041%=      5-min Rain = 0
KRO1 142049Z 06008KT 34/19 A3004 RMK A01 T03420189  RH  041%=      5-min Rain = 0
KRO1 142050Z 04008KT 34/19 A3004 RMK A01 T03420188  RH  040%=      5-min Rain = 0
KRO1 142051Z 03005KT 34/19 A3004 RMK A01 T03420190  RH  041%=      5-min Rain = 0
KRO1 142052Z 06009G14KT 34/19 A3004 RMK A01 T03430193  RH  041%=      5-min Rain = 0
KRO1 142053Z 07015KT 35/19 A3004 RMK A01 T03460192  RH  040%=      5-min Rain = 0
KRO1 142054Z 06014KT 35/19 A3004 RMK A01 T03460189  RH  040%=      5-min Rain = 0
KRO1 142055Z 06012KT 34/19 A3004 RMK A01 T03430193  RH  041%=      5-min Rain = 0
KRO1 142056Z 07014KT 35/19 A3004 RMK A01 T03460191  RH  040%=      5-min Rain = 0
KRO1 142057Z 07013KT 34/19 A3004 RMK A01 T03430187  RH  040%=      5-min Rain = 0
KRO1 142058Z 06012KT 34/19 A3004 RMK A01 T03390188  RH  041%=      5-min Rain = 0
KRO1 142059Z 06010KT 34/19 A3004 RMK A01 T03380187  RH  041%=      5-min Rain = 0
KRO1 142100Z 06009KT 34/19 A3004 RMK A01 T03380188  RH  041%=      5-min Rain = 0
KRO1 142101Z 06009KT 34/19 A3004 RMK A01 T03390189  RH  041%=      5-min Rain = 0
KRO1 142102Z 08012KT 34/19 A3004 RMK A01 T03400188  RH  041%=      5-min Rain = 0
KRO1 142103Z 07010KT 34/19 A3004 RMK A01 T03430189  RH  040%=      5-min Rain = 0
KRO1 142104Z 08011KT 34/19 A3003 RMK A01 T03440189  RH  040%=      5-min Rain = 0
KRO1 142105Z 07009KT 34/19 A3003 RMK A01 T03430188  RH  040%=      5-min Rain = 0
KRO1 142106Z 08012KT 34/19 A3003 RMK A01 T03420189  RH  041%=      5-min Rain = 0
KRO1 142107Z 06013KT 34/19 A3003 RMK A01 T03430190  RH  041%=      5-min Rain = 0
KRO1 142108Z 07014KT 34/19 A3003 RMK A01 T03430190  RH  041%=      5-min Rain = 0
KRO1 142109Z 06013KT 34/19 A3003 RMK A01 T03410190  RH  041%=      5-min Rain = 0
KRO1 142110Z 06012KT 34/19 A3003 RMK A01 T03400191  RH  042%=      5-min Rain = 0
KRO1 142111Z 07012KT 34/19 A3003 RMK A01 T03400189  RH  041%=      5-min Rain = 0
KRO1 142112Z 06012KT 34/19 A3003 RMK A01 T03410190  RH  041%=      5-min Rain = 0
KRO1 142113Z 05010KT 34/19 A3003 RMK A01 T03400189  RH  041%=      5-min Rain = 0
KRO1 142114Z 07012KT 34/19 A3003 RMK A01 T03410191  RH  041%=      5-min Rain = 0
KRO1 142115Z 08009G14KT 34/18 A3003 RMK A01 T03420184  RH  039%=      5-min Rain = 0
KRO1 142116Z 08005KT 34/18 A3003 RMK A01 T03380182  RH  040%=      5-min Rain = 0
KRO1 142117Z 08009KT 34/19 A3003 RMK A01 T03390187  RH  041%=      5-min Rain = 0
KRO1 142118Z 08011KT 34/19 A3003 RMK A01 T03420186  RH  040%=      5-min Rain = 0
KRO1 142119Z 07010KT 34/18 A3003 RMK A01 T03440184  RH  039%=      5-min Rain = 0
KRO1 142120Z 07008KT 34/18 A3003 RMK A01 T03420182  RH  039%=      5-min Rain = 0
KRO1 142121Z 06012KT 34/19 A3003 RMK A01 T03420188  RH  040%=      5-min Rain = 0
KRO1 142122Z 06011KT 34/19 A3003 RMK A01 T03430186  RH  040%=      5-min Rain = 0
KRO1 142123Z 06007KT 34/19 A3003 RMK A01 T03410186  RH  040%=      5-min Rain = 0
KRO1 142124Z 07011KT 34/19 A3003 RMK A01 T03410189  RH  041%=      5-min Rain = 0
KRO1 142125Z 06011KT 34/19 A3003 RMK A01 T03430185  RH  040%=      5-min Rain = 0
KRO1 142126Z 07011KT 34/19 A3003 RMK A01 T03420187  RH  040%=      5-min Rain = 0
KRO1 142127Z 07010G15KT 34/19 A3003 RMK A01 T03420185  RH  040%=      5-min Rain = 0
KRO1 142128Z 05013KT 34/19 A3003 RMK A01 T03430186  RH  040%=      5-min Rain = 0
KRO1 142129Z 06012KT 34/19 A3003 RMK A01 T03420186  RH  040%=      5-min Rain = 0
KRO1 142130Z 06011KT 34/18 A3003 RMK A01 T03410184  RH  039%=      5-min Rain = 0
KRO1 142131Z 06012KT 34/18 A3003 RMK A01 T03410184  RH  040%=      5-min Rain = 0
KRO1 142132Z 05010KT 34/19 A3003 RMK A01 T03410185  RH  040%=      5-min Rain = 0
KRO1 142133Z 05010KT 34/18 A3003 RMK A01 T03430184  RH  039%=      5-min Rain = 0
KRO1 142134Z 04008KT 34/18 A3003 RMK A01 T03440183  RH  039%=      5-min Rain = 0
KRO1 142135Z 04008KT 34/19 A3003 RMK A01 T03440185  RH  039%=      5-min Rain = 0
KRO1 142136Z 03010KT 34/19 A3002 RMK A01 T03430189  RH  040%=      5-min Rain = 0
KRO1 142137Z 05011KT 35/19 A3002 RMK A01 T03450188  RH  040%=      5-min Rain = 0
KRO1 142138Z 05014KT 35/19 A3002 RMK A01 T03450187  RH  039%=      5-min Rain = 0
KRO1 142139Z 05013G18KT 34/19 A3002 RMK A01 T03440186  RH  039%=      5-min Rain = 0
KRO1 142140Z 05010KT 34/19 A3002 RMK A01 T03420185  RH  040%=      5-min Rain = 0
KRO1 142141Z 06010KT 34/19 A3002 RMK A01 T03420187  RH  040%=      5-min Rain = 0
KRO1 142142Z 05011KT 34/18 A3002 RMK A01 T03420184  RH  039%=      5-min Rain = 0
KRO1 142143Z 07012KT 34/19 A3002 RMK A01 T03420186  RH  040%=      5-min Rain = 0
KRO1 142144Z 07010KT 34/18 A3002 RMK A01 T03420182  RH  039%=      5-min Rain = 0
KRO1 142145Z 08009KT 34/18 A3002 RMK A01 T03420184  RH  039%=      5-min Rain = 0
KRO1 142146Z 07009KT 34/18 A3002 RMK A01 T03420183  RH  039%=      5-min Rain = 0
KRO1 142147Z 07009KT 34/18 A3002 RMK A01 T03430184  RH  039%=      5-min Rain = 0
KRO1 142148Z 08008KT 34/18 A3002 RMK A01 T03410183  RH  039%=      5-min Rain = 0
KRO1 142149Z 08010KT 34/19 A3002 RMK A01 T03410187  RH  040%=      5-min Rain = 0
KRO1 142150Z 07012KT 34/18 A3002 RMK A01 T03440184  RH  039%=      5-min Rain = 0
KRO1 142151Z 05016KT 34/19 A3002 RMK A01 T03440186  RH  039%=      5-min Rain = 0
KRO1 142152Z 07014KT 35/18 A3002 RMK A01 T03450184  RH  039%=      5-min Rain = 0
KRO1 142153Z 06014G19KT 35/19 A3002 RMK A01 T03450185  RH  039%=      5-min Rain = 0
KRO1 142154Z 06013KT 34/19 A3002 RMK A01 T03440186  RH  039%=      5-min Rain = 0
KRO1 142155Z 07012KT 34/18 A3002 RMK A01 T03440183  RH  039%=      5-min Rain = 0
KRO1 142156Z 07011KT 34/18 A3002 RMK A01 T03440180  RH  038%=      5-min Rain = 0
KRO1 142157Z 07010KT 34/18 A3002 RMK A01 T03430183  RH  039%=      5-min Rain = 0
KRO1 142158Z 08012KT 34/18 A3002 RMK A01 T03430182  RH  039%=      5-min Rain = 0
KRO1 142159Z 07011KT 34/18 A3002 RMK A01 T03440181  RH  038%=      5-min Rain = 0
KRO1 142200Z 06011KT 34/18 A3002 RMK A01 T03440181  RH  038%=      5-min Rain = 0
KRO1 142201Z 08012KT 34/18 A3002 RMK A01 T03420179  RH  038%=      5-min Rain = 0
KRO1 142202Z 07011KT 34/18 A3002 RMK A01 T03420178  RH  038%=      5-min Rain = 0
KRO1 142203Z 08013KT 34/18 A3002 RMK A01 T03440176  RH  037%=      5-min Rain = 0
KRO1 142204Z 10011KT 34/17 A3002 RMK A01 T03440173  RH  036%=      5-min Rain = 0
KRO1 142205Z 08016KT 35/18 A3002 RMK A01 T03470176  RH  036%=      5-min Rain = 0
KRO1 142206Z 07012KT 35/18 A3002 RMK A01 T03470181  RH  038%=      5-min Rain = 0
KRO1 142207Z 07013KT 35/18 A3002 RMK A01 T03450181  RH  038%=      5-min Rain = 0
KRO1 142208Z 07013KT 34/18 A3002 RMK A01 T03430180  RH  038%=      5-min Rain = 0
KRO1 142209Z 08011KT 34/18 A3002 RMK A01 T03420180  RH  038%=      5-min Rain = 0
KRO1 142210Z 08010KT 34/18 A3002 RMK A01 T03420179  RH  038%=      5-min Rain = 0
KRO1 142211Z 07007KT 34/18 A3002 RMK A01 T03430181  RH  038%=      5-min Rain = 0
KRO1 142212Z 08010KT 35/18 A3002 RMK A01 T03450182  RH  038%=      5-min Rain = 0
KRO1 142213Z 09006KT 35/18 A3002 RMK A01 T03470177  RH  037%=      5-min Rain = 0
KRO1 142214Z 05006KT 35/18 A3002 RMK A01 T03470178  RH  037%=      5-min Rain = 0
KRO1 142215Z 05009G15KT 35/18 A3002 RMK A01 T03460183  RH  038%=      5-min Rain = 0
KRO1 142216Z 06014KT 35/19 A3002 RMK A01 T03460185  RH  039%=      5-min Rain = 0
KRO1 142217Z 05013KT 35/18 A3002 RMK A01 T03450181  RH  038%=      5-min Rain = 0
KRO1 142218Z 06012KT 34/18 A3002 RMK A01 T03430182  RH  038%=      5-min Rain = 0
KRO1 142219Z 07014KT 34/18 A3002 RMK A01 T03420183  RH  039%=      5-min Rain = 0
KRO1 142220Z 07013KT 34/18 A3002 RMK A01 T03420183  RH  039%=      5-min Rain = 0
KRO1 142221Z 07011KT 34/18 A3002 RMK A01 T03420181  RH  039%=      5-min Rain = 0
KRO1 142222Z 06010KT 34/18 A3002 RMK A01 T03430181  RH  038%=      5-min Rain = 0
KRO1 142223Z 07012KT 34/18 A3002 RMK A01 T03430180  RH  038%=      5-min Rain = 0
KRO1 142224Z 05009KT 34/18 A3002 RMK A01 T03430181  RH  038%=      5-min Rain = 0
KRO1 142225Z 06007KT 34/18 A3002 RMK A01 T03420178  RH  038%=      5-min Rain = 0
KRO1 142226Z 07006KT 34/18 A3002 RMK A01 T03420178  RH  038%=      5-min Rain = 0
KRO1 142227Z 06007KT 34/18 A3002 RMK A01 T03420179  RH  038%=      5-min Rain = 0
KRO1 142228Z 05007KT 34/18 A3002 RMK A01 T03420180  RH  038%=      5-min Rain = 0
KRO1 142229Z 06008KT 34/18 A3002 RMK A01 T03430179  RH  038%=      5-min Rain = 0
KRO1 142230Z 08010KT 34/18 A3002 RMK A01 T03430177  RH  037%=      5-min Rain = 0
KRO1 142231Z 05008KT 34/18 A3002 RMK A01 T03440179  RH  038%=      5-min Rain = 0
KRO1 142232Z 07008KT 34/18 A3002 RMK A01 T03440183  RH  039%=      5-min Rain = 0
KRO1 142233Z 08009KT 34/18 A3002 RMK A01 T03440178  RH  037%=      5-min Rain = 0
KRO1 142234Z 07007KT 35/18 A3002 RMK A01 T03450177  RH  037%=      5-min Rain = 0
KRO1 142235Z 09007KT 35/18 A3001 RMK A01 T03450179  RH  038%=      5-min Rain = 0
KRO1 142236Z 08008KT 35/18 A3001 RMK A01 T03460177  RH  037%=      5-min Rain = 0
KRO1 142237Z 08005KT 35/18 A3001 RMK A01 T03470175  RH  036%=      5-min Rain = 0
KRO1 142238Z 07011KT 35/18 A3001 RMK A01 T03470179  RH  037%=      5-min Rain = 0
KRO1 142239Z 07011KT 35/18 A3001 RMK A01 T03470178  RH  037%=      5-min Rain = 0
KRO1 142240Z 07012KT 35/18 A3001 RMK A01 T03450177  RH  037%=      5-min Rain = 0
KRO1 142241Z 07013KT 35/18 A3001 RMK A01 T03460179  RH  037%=      5-min Rain = 0
KRO1 142242Z 07012KT 35/18 A3001 RMK A01 T03450177  RH  037%=      5-min Rain = 0
KRO1 142243Z 07010KT 34/17 A3001 RMK A01 T03430174  RH  037%=      5-min Rain = 0
KRO1 142244Z 08009KT 34/17 A3001 RMK A01 T03420174  RH  037%=      5-min Rain = 0
KRO1 142245Z 06008KT 34/17 A3001 RMK A01 T03440171  RH  036%=      5-min Rain = 0
KRO1 142246Z 06007KT 34/17 A3001 RMK A01 T03440172  RH  036%=      5-min Rain = 0
KRO1 142247Z 07005KT 34/18 A3001 RMK A01 T03430175  RH  037%=      5-min Rain = 0
KRO1 142248Z 08009KT 34/18 A3001 RMK A01 T03440176  RH  037%=      5-min Rain = 0
KRO1 142249Z 10008KT 35/17 A3001 RMK A01 T03450173  RH  036%=      5-min Rain = 0
KRO1 142250Z 09006KT 35/18 A3001 RMK A01 T03450178  RH  037%=      5-min Rain = 0
KRO1 142251Z 08006KT 35/18 A3001 RMK A01 T03470179  RH  037%=      5-min Rain = 0
KRO1 142252Z 08010G15KT 35/19 A3001 RMK A01 T03480185  RH  038%=      5-min Rain = 0
KRO1 142253Z 09010KT 35/18 A3001 RMK A01 T03490182  RH  037%=      5-min Rain = 0
KRO1 142254Z 08009KT 35/18 A3001 RMK A01 T03480182  RH  037%=      5-min Rain = 0
KRO1 142255Z 08008KT 35/19 A3001 RMK A01 T03470187  RH  039%=      5-min Rain = 0
KRO1 142256Z 07009KT 35/19 A3001 RMK A01 T03460185  RH  039%=      5-min Rain = 0
KRO1 142257Z 08009KT 34/18 A3001 RMK A01 T03440183  RH  039%=      5-min Rain = 0
KRO1 142258Z 11007KT 34/18 A3001 RMK A01 T03430182  RH  039%=      5-min Rain = 0
KRO1 142259Z 09009KT 35/18 A3001 RMK A01 T03450183  RH  038%=      5-min Rain = 0
KRO1 142300Z 08009KT 35/19 A3001 RMK A01 T03470185  RH  038%=      5-min Rain = 0
KRO1 142301Z 08009KT 35/18 A3001 RMK A01 T03470182  RH  038%=      5-min Rain = 0
KRO1 142302Z 09008KT 35/18 A3001 RMK A01 T03450180  RH  038%=      5-min Rain = 0
KRO1 142303Z 09007KT 34/18 A3002 RMK A01 T03440180  RH  038%=      5-min Rain = 0
KRO1 142304Z 09006KT 34/18 A3002 RMK A01 T03430181  RH  038%=      5-min Rain = 0
KRO1 142305Z 11008KT 34/18 A3002 RMK A01 T03440182  RH  038%=      5-min Rain = 0
KRO1 142306Z 11007KT 35/18 A3002 RMK A01 T03450178  RH  037%=      5-min Rain = 0
KRO1 142307Z 08008KT 35/18 A3002 RMK A01 T03460181  RH  038%=      5-min Rain = 0
KRO1 142308Z 10008KT 35/18 A3001 RMK A01 T03450181  RH  038%=      5-min Rain = 0
KRO1 142309Z 08013KT 35/18 A3001 RMK A01 T03450181  RH  038%=      5-min Rain = 0
KRO1 142310Z 07012KT 34/18 A3001 RMK A01 T03440179  RH  038%=      5-min Rain = 0
KRO1 142311Z 08010KT 34/18 A3001 RMK A01 T03420178  RH  038%=      5-min Rain = 0
KRO1 142312Z 09009KT 34/18 A3001 RMK A01 T03410179  RH  038%=      5-min Rain = 0
KRO1 142313Z 08008KT 34/18 A3001 RMK A01 T03410179  RH  038%=      5-min Rain = 0
KRO1 142314Z 08007KT 34/18 A3001 RMK A01 T03430178  RH  038%=      5-min Rain = 0
KRO1 142315Z 09006KT 34/18 A3001 RMK A01 T03420179  RH  038%=      5-min Rain = 0
KRO1 142316Z 07004KT 34/18 A3001 RMK A01 T03420179  RH  038%=      5-min Rain = 0
KRO1 142317Z 06006G11KT 34/19 A3001 RMK A01 T03430185  RH  039%=      5-min Rain = 0
KRO1 142318Z 09009KT 35/18 A3001 RMK A01 T03450184  RH  039%=      5-min Rain = 0
KRO1 142319Z 07007KT 35/18 A3001 RMK A01 T03460180  RH  037%=      5-min Rain = 0
KRO1 142320Z 07008KT 35/18 A3001 RMK A01 T03450181  RH  038%=      5-min Rain = 0
KRO1 142321Z 07008KT 34/18 A3001 RMK A01 T03440183  RH  039%=      5-min Rain = 0
KRO1 142322Z 07009KT 34/18 A3001 RMK A01 T03440183  RH  039%=      5-min Rain = 0
KRO1 142323Z 05010KT 34/18 A3001 RMK A01 T03430183  RH  039%=      5-min Rain = 0
KRO1 142324Z 05009KT 34/18 A3001 RMK A01 T03420184  RH  039%=      5-min Rain = 0
KRO1 142325Z 05008KT 34/18 A3001 RMK A01 T03410184  RH  040%=      5-min Rain = 0
KRO1 142326Z 06006KT 34/18 A3001 RMK A01 T03400180  RH  039%=      5-min Rain = 0
KRO1 142327Z 06005KT 34/18 A3001 RMK A01 T03390180  RH  039%=      5-min Rain = 0
KRO1 142328Z 06007KT 34/18 A3001 RMK A01 T03390184  RH  040%=      5-min Rain = 0
KRO1 142329Z 06007KT 34/19 A3001 RMK A01 T03400185  RH  040%=      5-min Rain = 0
KRO1 142330Z 05009KT 34/18 A3001 RMK A01 T03410182  RH  039%=      5-min Rain = 0
KRO1 142331Z 05008KT 34/18 A3001 RMK A01 T03410181  RH  039%=      5-min Rain = 0
KRO1 142332Z 07008KT 34/19 A3001 RMK A01 T03400185  RH  040%=      5-min Rain = 0
KRO1 142333Z 08009KT 34/18 A3001 RMK A01 T03400184  RH  040%=      5-min Rain = 0
KRO1 142334Z 07008KT 34/18 A3001 RMK A01 T03410184  RH  040%=      5-min Rain = 0
KRO1 142335Z 10008KT 34/19 A3001 RMK A01 T03410186  RH  040%=      5-min Rain = 0
KRO1 142336Z 11009KT 34/18 A3001 RMK A01 T03410182  RH  039%=      5-min Rain = 0
KRO1 142337Z 10006KT 34/18 A3001 RMK A01 T03410182  RH  039%=      5-min Rain = 0
KRO1 142338Z 11007KT 34/18 A3001 RMK A01 T03410181  RH  039%=      5-min Rain = 0
KRO1 142339Z 12008KT 34/18 A3001 RMK A01 T03420183  RH  039%=      5-min Rain = 0
KRO1 142340Z 10008KT 34/18 A3001 RMK A01 T03430182  RH  039%=      5-min Rain = 0
KRO1 142341Z 09009KT 34/18 A3001 RMK A01 T03430183  RH  039%=      5-min Rain = 0
KRO1 142342Z 07012KT 34/18 A3001 RMK A01 T03430182  RH  039%=      5-min Rain = 0
KRO1 142343Z 08010KT 34/18 A3001 RMK A01 T03410182  RH  039%=      5-min Rain = 0
KRO1 142344Z 09009KT 34/18 A3001 RMK A01 T03400182  RH  039%=      5-min Rain = 0
KRO1 142345Z 09009KT 34/18 A3001 RMK A01 T03390181  RH  039%=      5-min Rain = 0
KRO1 142346Z 09007KT 34/18 A3001 RMK A01 T03400181  RH  039%=      5-min Rain = 0
KRO1 142347Z 08008KT 34/18 A3001 RMK A01 T03400182  RH  039%=      5-min Rain = 0
KRO1 142348Z 09007KT 34/18 A3001 RMK A01 T03400182  RH  039%=      5-min Rain = 0
KRO1 142349Z 09007KT 34/18 A3001 RMK A01 T03400181  RH  039%=      5-min Rain = 0
KRO1 142350Z 09009KT 34/18 A3001 RMK A01 T03410182  RH  039%=      5-min Rain = 0
KRO1 142351Z 08007KT 34/18 A3001 RMK A01 T03410182  RH  039%=      5-min Rain = 0
KRO1 142352Z 09009KT 34/18 A3001 RMK A01 T03400182  RH  039%=      5-min Rain = 0
KRO1 142353Z 06009KT 34/18 A3001 RMK A01 T03400184  RH  040%=      5-min Rain = 0
KRO1 142354Z 06010KT 34/18 A3001 RMK A01 T03390181  RH  039%=      5-min Rain = 0
KRO1 142355Z 06007KT 34/18 A3001 RMK A01 T03380179  RH  039%=      5-min Rain = 0
KRO1 142356Z 07006KT 34/18 A3001 RMK A01 T03370179  RH  039%=      5-min Rain = 0
KRO1 142357Z 06009KT 34/18 A3001 RMK A01 T03370183  RH  040%=      5-min Rain = 0
KRO1 142358Z 05008KT 34/18 A3001 RMK A01 T03370182  RH  040%=      5-min Rain = 0
KRO1 142359Z 04008KT 34/18 A3001 RMK A01 T03370184  RH  040%=      5-min Rain = 0
KRO1 150000Z 06008KT 34/18 A3001 RMK A01 T03370181  RH  040%=      5-min Rain = 0
KRO1 150001Z 07009KT 34/18 A3001 RMK A01 T03370180  RH  040%=      5-min Rain = 0
KRO1 150002Z 07010KT 34/18 A3001 RMK A01 T03370175  RH  038%=      5-min Rain = 0
KRO1 150003Z 06008KT 34/18 A3001 RMK A01 T03370178  RH  039%=      5-min Rain = 0
KRO1 150004Z 07008KT 34/18 A3001 RMK A01 T03360183  RH  040%=      5-min Rain = 0
KRO1 150005Z 07007KT 34/18 A3001 RMK A01 T03360181  RH  040%=      5-min Rain = 0
KRO1 150006Z 06006KT 34/18 A3001 RMK A01 T03350182  RH  040%=      5-min Rain = 0
KRO1 150007Z 06006KT 34/19 A3001 RMK A01 T03350185  RH  041%=      5-min Rain = 0
KRO1 150008Z 06008KT 34/18 A3001 RMK A01 T03350184  RH  041%=      5-min Rain = 0
KRO1 150009Z 06009KT 34/18 A3001 RMK A01 T03350181  RH  040%=      5-min Rain = 0
KRO1 150010Z 06010KT 34/18 A3001 RMK A01 T03350180  RH  040%=      5-min Rain = 0
KRO1 150011Z 06010KT 34/18 A3001 RMK A01 T03350180  RH  040%=      5-min Rain = 0
KRO1 150012Z 06008KT 33/18 A3001 RMK A01 T03340181  RH  040%=      5-min Rain = 0
KRO1 150013Z 06009KT 33/18 A3001 RMK A01 T03340181  RH  040%=      5-min Rain = 0
KRO1 150014Z 07008KT 33/18 A3001 RMK A01 T03340180  RH  040%=      5-min Rain = 0
KRO1 150015Z 07007KT 33/18 A3001 RMK A01 T03330181  RH  041%=      5-min Rain = 0
KRO1 150016Z 06009KT 33/18 A3001 RMK A01 T03330184  RH  041%=      5-min Rain = 0
KRO1 150017Z 06011KT 33/18 A3001 RMK A01 T03330184  RH  041%=      5-min Rain = 0
KRO1 150018Z 05012KT 33/18 A3001 RMK A01 T03330183  RH  041%=      5-min Rain = 0
KRO1 150019Z 05012KT 33/18 A3001 RMK A01 T03330183  RH  041%=      5-min Rain = 0
KRO1 150020Z 06009KT 33/18 A3001 RMK A01 T03320184  RH  041%=      5-min Rain = 0
KRO1 150021Z 06009KT 33/19 A3001 RMK A01 T03320185  RH  042%=      5-min Rain = 0
KRO1 150022Z 06009KT 33/18 A3001 RMK A01 T03310183  RH  041%=      5-min Rain = 0
KRO1 150023Z 07009KT 33/18 A3001 RMK A01 T03320183  RH  041%=      5-min Rain = 0
KRO1 150024Z 07009KT 33/18 A3001 RMK A01 T03310181  RH  041%=      5-min Rain = 0
KRO1 150025Z 06007KT 33/18 A3001 RMK A01 T03310181  RH  041%=      5-min Rain = 0
KRO1 150026Z 07008KT 33/18 A3001 RMK A01 T03310181  RH  041%=      5-min Rain = 0
KRO1 150027Z 07008KT 33/18 A3001 RMK A01 T03310180  RH  041%=      5-min Rain = 0
KRO1 150028Z 07009KT 33/18 A3001 RMK A01 T03310182  RH  041%=      5-min Rain = 0
KRO1 150029Z 08009KT 33/18 A3001 RMK A01 T03310178  RH  040%=      5-min Rain = 0
KRO1 150030Z 08009KT 33/18 A3001 RMK A01 T03320179  RH  040%=      5-min Rain = 0
KRO1 150031Z 08010KT 33/18 A3001 RMK A01 T03320177  RH  040%=      5-min Rain = 0
KRO1 150032Z 07009KT 33/18 A3001 RMK A01 T03320175  RH  039%=      5-min Rain = 0
KRO1 150033Z 08010KT 33/17 A3001 RMK A01 T03320174  RH  039%=      5-min Rain = 0
KRO1 150034Z 08009KT 33/17 A3001 RMK A01 T03320173  RH  039%=      5-min Rain = 0
KRO1 150035Z 08010KT 33/17 A3001 RMK A01 T03330173  RH  039%=      5-min Rain = 0
KRO1 150036Z 08009KT 33/17 A3001 RMK A01 T03330172  RH  038%=      5-min Rain = 0
KRO1 150037Z 08008KT 33/17 A3001 RMK A01 T03330173  RH  039%=      5-min Rain = 0
KRO1 150038Z 08009KT 33/17 A3001 RMK A01 T03320173  RH  039%=      5-min Rain = 0
KRO1 150039Z 07007KT 33/17 A3001 RMK A01 T03320174  RH  039%=      5-min Rain = 0
KRO1 150040Z 06006KT 33/18 A3001 RMK A01 T03310177  RH  040%=      5-min Rain = 0
KRO1 150041Z 06008KT 33/18 A3001 RMK A01 T03300178  RH  041%=      5-min Rain = 0
KRO1 150042Z 06008KT 33/18 A3001 RMK A01 T03290180  RH  041%=      5-min Rain = 0
KRO1 150043Z 06009KT 33/18 A3001 RMK A01 T03280181  RH  042%=      5-min Rain = 0
KRO1 150044Z 05008KT 33/18 A3001 RMK A01 T03270181  RH  042%=      5-min Rain = 0
KRO1 150045Z 05008KT 33/18 A3001 RMK A01 T03270181  RH  042%=      5-min Rain = 0
KRO1 150046Z 05008KT 33/18 A3001 RMK A01 T03270181  RH  042%=      5-min Rain = 0
KRO1 150047Z 06007KT 33/18 A3001 RMK A01 T03270183  RH  042%=      5-min Rain = 0
KRO1 150048Z 06007KT 33/18 A3001 RMK A01 T03260182  RH  042%=      5-min Rain = 0
KRO1 150049Z 06008KT 33/18 A3001 RMK A01 T03260182  RH  043%=      5-min Rain = 0
KRO1 150050Z 06007KT 33/18 A3001 RMK A01 T03260183  RH  043%=      5-min Rain = 0
KRO1 150051Z 06009KT 33/18 A3002 RMK A01 T03250182  RH  043%=      5-min Rain = 0
KRO1 150052Z 06008KT 33/18 A3002 RMK A01 T03250181  RH  042%=      5-min Rain = 0
KRO1 150053Z 06008KT 33/18 A3002 RMK A01 T03250183  RH  043%=      5-min Rain = 0
KRO1 150054Z 06007KT 32/18 A3002 RMK A01 T03240183  RH  043%=      5-min Rain = 0
KRO1 150055Z 06007KT 32/18 A3002 RMK A01 T03240183  RH  043%=      5-min Rain = 0
KRO1 150056Z 07009KT 32/18 A3002 RMK A01 T03240183  RH  043%=      5-min Rain = 0
KRO1 150057Z 06008KT 32/18 A3002 RMK A01 T03240181  RH  043%=      5-min Rain = 0
KRO1 150058Z 06007KT 32/18 A3002 RMK A01 T03230184  RH  043%=      5-min Rain = 0
KRO1 150059Z 07008KT 32/18 A3002 RMK A01 T03230184  RH  044%=      5-min Rain = 0
KRO1 150100Z 07008KT 32/18 A3002 RMK A01 T03220184  RH  044%=      5-min Rain = 0
KRO1 150101Z 06008KT 32/18 A3002 RMK A01 T03220183  RH  044%=      5-min Rain = 0
KRO1 150102Z 06007KT 32/18 A3002 RMK A01 T03210183  RH  044%=      5-min Rain = 0
KRO1 150103Z 07007KT 32/18 A3002 RMK A01 T03210182  RH  044%=      5-min Rain = 0
KRO1 150104Z 06007KT 32/18 A3002 RMK A01 T03210182  RH  044%=      5-min Rain = 0
KRO1 150105Z 06008KT 32/18 A3002 RMK A01 T03210182  RH  044%=      5-min Rain = 0
KRO1 150106Z 06008KT 32/18 A3002 RMK A01 T03200182  RH  044%=      5-min Rain = 0
KRO1 150107Z 06008KT 32/18 A3003 RMK A01 T03200182  RH  044%=      5-min Rain = 0
KRO1 150108Z 06008KT 32/18 A3003 RMK A01 T03200181  RH  044%=      5-min Rain = 0
KRO1 150109Z 06008KT 32/18 A3003 RMK A01 T03200182  RH  044%=      5-min Rain = 0
KRO1 150110Z 06007KT 32/18 A3003 RMK A01 T03190181  RH  044%=      5-min Rain = 0
KRO1 150111Z 06008KT 32/18 A3003 RMK A01 T03190181  RH  044%=      5-min Rain = 0
KRO1 150112Z 06008KT 32/18 A3003 RMK A01 T03190181  RH  044%=      5-min Rain = 0
KRO1 150113Z 06007KT 32/18 A3003 RMK A01 T03180181  RH  044%=      5-min Rain = 0
KRO1 150114Z 07007KT 32/18 A3003 RMK A01 T03180181  RH  044%=      5-min Rain = 0
KRO1 150115Z 06008KT 32/18 A3003 RMK A01 T03170181  RH  044%=      5-min Rain = 0
KRO1 150116Z 06007KT 32/18 A3003 RMK A01 T03170181  RH  044%=      5-min Rain = 0
KRO1 150117Z 06007KT 32/18 A3003 RMK A01 T03160180  RH  044%=      5-min Rain = 0
KRO1 150118Z 06007KT 32/18 A3003 RMK A01 T03160181  RH  044%=      5-min Rain = 0
KRO1 150119Z 06007KT 32/18 A3003 RMK A01 T03160181  RH  045%=      5-min Rain = 0
KRO1 150120Z 06007KT 32/18 A3003 RMK A01 T03150180  RH  045%=      5-min Rain = 0
KRO1 150121Z 06007KT 32/18 A3003 RMK A01 T03150180  RH  045%=      5-min Rain = 0
KRO1 150122Z 06007KT 31/18 A3003 RMK A01 T03140180  RH  045%=      5-min Rain = 0
KRO1 150123Z 06007KT 31/18 A3003 RMK A01 T03140180  RH  045%=      5-min Rain = 0
KRO1 150124Z 06007KT 31/18 A3003 RMK A01 T03140179  RH  045%=      5-min Rain = 0
KRO1 150125Z 06007KT 31/18 A3003 RMK A01 T03140180  RH  045%=      5-min Rain = 0
KRO1 150126Z 06007KT 31/18 A3003 RMK A01 T03130179  RH  045%=      5-min Rain = 0
KRO1 150127Z 06007KT 31/18 A3003 RMK A01 T03130179  RH  045%=      5-min Rain = 0
KRO1 150128Z 06007KT 31/18 A3003 RMK A01 T03120180  RH  045%=      5-min Rain = 0
KRO1 150129Z 06006KT 31/18 A3003 RMK A01 T03120179  RH  045%=      5-min Rain = 0
KRO1 150130Z 07006KT 31/18 A3003 RMK A01 T03110179  RH  045%=      5-min Rain = 0
KRO1 150131Z 07006KT 31/18 A3003 RMK A01 T03110179  RH  045%=      5-min Rain = 0
KRO1 150132Z 06006KT 31/18 A3003 RMK A01 T03100179  RH  046%=      5-min Rain = 0
KRO1 150133Z 06006KT 31/18 A3003 RMK A01 T03100179  RH  046%=      5-min Rain = 0
KRO1 150134Z 07006KT 31/18 A3004 RMK A01 T03090178  RH  046%=      5-min Rain = 0
KRO1 150135Z 07006KT 31/18 A3004 RMK A01 T03090178  RH  046%=      5-min Rain = 0
KRO1 150136Z 07006KT 31/18 A3004 RMK A01 T03090178  RH  046%=      5-min Rain = 0
KRO1 150137Z 07006KT 31/18 A3004 RMK A01 T03080179  RH  046%=      5-min Rain = 0
KRO1 150138Z 07006KT 31/18 A3004 RMK A01 T03070179  RH  046%=      5-min Rain = 0
KRO1 150139Z 07006KT 31/18 A3004 RMK A01 T03070179  RH  046%=      5-min Rain = 0
KRO1 150140Z 07006KT 31/18 A3004 RMK A01 T03070179  RH  046%=      5-min Rain = 0
KRO1 150141Z 07006KT 31/18 A3004 RMK A01 T03060179  RH  047%=      5-min Rain = 0
KRO1 150142Z 07006KT 31/18 A3004 RMK A01 T03060179  RH  047%=      5-min Rain = 0
KRO1 150143Z 07006KT 31/18 A3004 RMK A01 T03050180  RH  047%=      5-min Rain = 0
KRO1 150144Z 07005KT 31/18 A3004 RMK A01 T03050180  RH  047%=      5-min Rain = 0
KRO1 150145Z 07005KT 30/18 A3004 RMK A01 T03040180  RH  047%=      5-min Rain = 0
KRO1 150146Z 07005KT 30/18 A3004 RMK A01 T03030180  RH  048%=      5-min Rain = 0
KRO1 150147Z 07005KT 30/18 A3004 RMK A01 T03020180  RH  048%=      5-min Rain = 0
KRO1 150148Z 07005KT 30/18 A3004 RMK A01 T03020180  RH  048%=      5-min Rain = 0
KRO1 150149Z 07005KT 30/18 A3004 RMK A01 T03020180  RH  048%=      5-min Rain = 0
KRO1 150150Z 07005KT 30/18 A3004 RMK A01 T03010180  RH  048%=      5-min Rain = 0
KRO1 150151Z 07005KT 30/18 A3004 RMK A01 T03010180  RH  048%=      5-min Rain = 0
KRO1 150152Z 07005KT 30/18 A3005 RMK A01 T03000180  RH  049%=      5-min Rain = 0
KRO1 150153Z 08005KT 30/18 A3005 RMK A01 T03000180  RH  049%=      5-min Rain = 0
KRO1 150154Z 08005KT 30/18 A3005 RMK A01 T03000180  RH  048%=      5-min Rain = 0
KRO1 150155Z 08005KT 30/18 A3005 RMK A01 T03000179  RH  048%=      5-min Rain = 0
KRO1 150156Z 08005KT 30/18 A3005 RMK A01 T03010179  RH  048%=      5-min Rain = 0
KRO1 150157Z 08005KT 30/18 A3005 RMK A01 T03010179  RH  048%=      5-min Rain = 0
KRO1 150158Z 08005KT 30/18 A3005 RMK A01 T03010179  RH  048%=      5-min Rain = 0
KRO1 150159Z 08005KT 30/18 A3005 RMK A01 T03010179  RH  048%=      5-min Rain = 0
KRO1 150200Z 08006KT 30/18 A3005 RMK A01 T03010179  RH  048%=      5-min Rain = 0
KRO1 150201Z 08005KT 30/18 A3005 RMK A01 T03010179  RH  048%=      5-min Rain = 0
KRO1 150202Z 08006KT 30/18 A3005 RMK A01 T03010179  RH  048%=      5-min Rain = 0
KRO1 150203Z 08005KT 30/18 A3005 RMK A01 T03020180  RH  048%=      5-min Rain = 0
KRO1 150204Z 08006KT 30/18 A3005 RMK A01 T03020180  RH  048%=      5-min Rain = 0
KRO1 150205Z 08006KT 30/18 A3006 RMK A01 T03030181  RH  048%=      5-min Rain = 0
KRO1 150206Z 08006KT 30/18 A3006 RMK A01 T03030181  RH  048%=      5-min Rain = 0
KRO1 150207Z 08005KT 30/18 A3006 RMK A01 T03040181  RH  048%=      5-min Rain = 0
KRO1 150208Z 08006KT 30/18 A3006 RMK A01 T03040181  RH  048%=      5-min Rain = 0
KRO1 150209Z 08005KT 30/18 A3006 RMK A01 T03030181  RH  048%=      5-min Rain = 0
KRO1 150210Z 07006KT 30/18 A3006 RMK A01 T03030182  RH  048%=      5-min Rain = 0
KRO1 150211Z 07005KT 30/18 A3006 RMK A01 T03030182  RH  048%=      5-min Rain = 0
KRO1 150212Z 07006KT 30/18 A3006 RMK A01 T03030182  RH  048%=      5-min Rain = 0
KRO1 150213Z 07006KT 30/18 A3006 RMK A01 T03020182  RH  049%=      5-min Rain = 0
KRO1 150214Z 07006KT 30/18 A3006 RMK A01 T03020182  RH  049%=      5-min Rain = 0
KRO1 150215Z 07006KT 30/18 A3006 RMK A01 T03010182  RH  049%=      5-min Rain = 0
KRO1 150216Z 07006KT 30/18 A3006 RMK A01 T03010182  RH  049%=      5-min Rain = 0
KRO1 150217Z 07005KT 30/18 A3006 RMK A01 T03010182  RH  049%=      5-min Rain = 0
KRO1 150218Z 07006KT 30/18 A3006 RMK A01 T03010182  RH  049%=      5-min Rain = 0
KRO1 150219Z 07006KT 30/18 A3006 RMK A01 T03000182  RH  049%=      5-min Rain = 0
KRO1 150220Z 07006KT 30/18 A3006 RMK A01 T03000181  RH  049%=      5-min Rain = 0
KRO1 150221Z 08006KT 30/18 A3006 RMK A01 T03000181  RH  049%=      5-min Rain = 0
KRO1 150222Z 07007KT 30/18 A3006 RMK A01 T03000182  RH  049%=      5-min Rain = 0
KRO1 150223Z 07006KT 30/18 A3006 RMK A01 T03000182  RH  049%=      5-min Rain = 0
KRO1 150224Z 07007KT 30/18 A3006 RMK A01 T03000182  RH  049%=      5-min Rain = 0
KRO1 150225Z 07006KT 30/18 A3006 RMK A01 T03000182  RH  049%=      5-min Rain = 0
KRO1 150226Z 08006KT 30/18 A3006 RMK A01 T03010182  RH  049%=      5-min Rain = 0
KRO1 150227Z 08005KT 30/18 A3006 RMK A01 T03010182  RH  049%=      5-min Rain = 0
KRO1 150228Z 08005KT 30/18 A3007 RMK A01 T03000182  RH  049%=      5-min Rain = 0
KRO1 150229Z 08005KT 30/18 A3007 RMK A01 T03000182  RH  049%=      5-min Rain = 0
KRO1 150230Z 07006KT 30/18 A3007 RMK A01 T02990183  RH  050%=      5-min Rain = 0
KRO1 150231Z 08005KT 30/18 A3007 RMK A01 T02980182  RH  050%=      5-min Rain = 0
KRO1 150232Z 08005KT 30/18 A3007 RMK A01 T02980183  RH  050%=      5-min Rain = 0
KRO1 150233Z 08005KT 30/18 A3007 RMK A01 T02980183  RH  050%=      5-min Rain = 0
KRO1 150234Z 08005KT 30/18 A3007 RMK A01 T02970182  RH  050%=      5-min Rain = 0
KRO1 150235Z 08005KT 30/18 A3007 RMK A01 T02970182  RH  050%=      5-min Rain = 0
KRO1 150236Z 08005KT 30/18 A3007 RMK A01 T02970183  RH  050%=      5-min Rain = 0
KRO1 150237Z 08005KT 30/18 A3007 RMK A01 T02970183  RH  050%=      5-min Rain = 0
KRO1 150238Z 08005KT 30/18 A3007 RMK A01 T02960183  RH  051%=      5-min Rain = 0
KRO1 150239Z 09005KT 30/18 A3007 RMK A01 T02960183  RH  051%=      5-min Rain = 0
KRO1 150240Z 09005KT 30/18 A3007 RMK A01 T02960183  RH  051%=      5-min Rain = 0
KRO1 150241Z 09005KT 30/18 A3007 RMK A01 T02960183  RH  051%=      5-min Rain = 0
KRO1 150242Z 09005KT 30/18 A3007 RMK A01 T02960184  RH  051%=      5-min Rain = 0
KRO1 150243Z 09005KT 30/18 A3007 RMK A01 T02960184  RH  051%=      5-min Rain = 0
KRO1 150244Z 09005KT 30/18 A3007 RMK A01 T02950184  RH  051%=      5-min Rain = 0
KRO1 150245Z 09005KT 30/18 A3008 RMK A01 T02960184  RH  051%=      5-min Rain = 0
KRO1 150246Z 08005KT 30/18 A3008 RMK A01 T02960184  RH  051%=      5-min Rain = 0
KRO1 150247Z 08005KT 30/18 A3008 RMK A01 T02960184  RH  051%=      5-min Rain = 0
KRO1 150248Z 08005KT 30/18 A3008 RMK A01 T02960184  RH  051%=      5-min Rain = 0
KRO1 150249Z 08005KT 30/18 A3008 RMK A01 T02960184  RH  051%=      5-min Rain = 0
KRO1 150250Z 07005KT 30/19 A3008 RMK A01 T02960185  RH  051%=      5-min Rain = 0
KRO1 150251Z 07005KT 30/18 A3008 RMK A01 T02950184  RH  051%=      5-min Rain = 0
KRO1 150252Z 07005KT 29/18 A3008 RMK A01 T02940184  RH  052%=      5-min Rain = 0
KRO1 150253Z 07005KT 29/18 A3008 RMK A01 T02930184  RH  052%=      5-min Rain = 0
KRO1 150254Z 07005KT 29/18 A3008 RMK A01 T02920184  RH  052%=      5-min Rain = 0
KRO1 150255Z 06006KT 29/18 A3008 RMK A01 T02920184  RH  052%=      5-min Rain = 0
KRO1 150256Z 06005KT 29/18 A3008 RMK A01 T02910184  RH  052%=      5-min Rain = 0
KRO1 150257Z 07005KT 29/18 A3008 RMK A01 T02900184  RH  053%=      5-min Rain = 0
KRO1 150258Z 06005KT 29/18 A3008 RMK A01 T02900184  RH  053%=      5-min Rain = 0
KRO1 150259Z 07005KT 29/18 A3008 RMK A01 T02900184  RH  053%=      5-min Rain = 0
KRO1 150300Z 07005KT 29/18 A3008 RMK A01 T02890184  RH  053%=      5-min Rain = 0
KRO1 150301Z 07005KT 29/18 A3008 RMK A01 T02890183  RH  053%=      5-min Rain = 0
KRO1 150302Z 08005KT 29/18 A3008 RMK A01 T02880183  RH  053%=      5-min Rain = 0
KRO1 150303Z 08005KT 29/18 A3008 RMK A01 T02880183  RH  053%=      5-min Rain = 0
KRO1 150304Z 08005KT 29/18 A3008 RMK A01 T02870183  RH  053%=      5-min Rain = 0
KRO1 150305Z 08005KT 29/18 A3008 RMK A01 T02870183  RH  053%=      5-min Rain = 0
KRO1 150306Z 07005KT 29/18 A3008 RMK A01 T02870183  RH  054%=      5-min Rain = 0
KRO1 150307Z 07005KT 29/18 A3008 RMK A01 T02870183  RH  054%=      5-min Rain = 0
KRO1 150308Z 07005KT 29/18 A3008 RMK A01 T02860184  RH  054%=      5-min Rain = 0
KRO1 150309Z 07004KT 29/18 A3009 RMK A01 T02860184  RH  054%=      5-min Rain = 0
KRO1 150310Z 07004KT 29/18 A3009 RMK A01 T02860183  RH  054%=      5-min Rain = 0
KRO1 150311Z 07004KT 29/18 A3009 RMK A01 T02860184  RH  054%=      5-min Rain = 0
KRO1 150312Z 07004KT 29/18 A3009 RMK A01 T02860183  RH  054%=      5-min Rain = 0
KRO1 150313Z 07004KT 29/18 A3009 RMK A01 T02860183  RH  054%=      5-min Rain = 0
KRO1 150314Z 07004KT 29/18 A3009 RMK A01 T02850183  RH  054%=      5-min Rain = 0
KRO1 150315Z 07004KT 29/18 A3009 RMK A01 T02850183  RH  054%=      5-min Rain = 0
KRO1 150316Z 07004KT 29/18 A3009 RMK A01 T02850184  RH  054%=      5-min Rain = 0
KRO1 150317Z 07004KT 29/18 A3009 RMK A01 T02850183  RH  054%=      5-min Rain = 0
KRO1 150318Z 07004KT 29/18 A3009 RMK A01 T02850184  RH  054%=      5-min Rain = 0
KRO1 150319Z 08004KT 28/18 A3009 RMK A01 T02840184  RH  055%=      5-min Rain = 0
KRO1 150320Z 08004KT 28/18 A3009 RMK A01 T02840184  RH  055%=      5-min Rain = 0
KRO1 150321Z 08004KT 28/18 A3009 RMK A01 T02840183  RH  055%=      5-min Rain = 0
KRO1 150322Z 08004KT 28/18 A3009 RMK A01 T02830183  RH  055%=      5-min Rain = 0
KRO1 150323Z 07004KT 28/18 A3009 RMK A01 T02830183  RH  055%=      5-min Rain = 0
KRO1 150324Z 07004KT 28/18 A3009 RMK A01 T02830183  RH  055%=      5-min Rain = 0
KRO1 150325Z 07005KT 28/18 A3009 RMK A01 T02830183  RH  055%=      5-min Rain = 0
KRO1 150326Z 07005KT 28/18 A3009 RMK A01 T02830183  RH  055%=      5-min Rain = 0
KRO1 150327Z 07004KT 28/18 A3009 RMK A01 T02830184  RH  055%=      5-min Rain = 0
KRO1 150328Z 06004KT 28/18 A3009 RMK A01 T02830184  RH  055%=      5-min Rain = 0
KRO1 150329Z 07004KT 28/18 A3009 RMK A01 T02820184  RH  055%=      5-min Rain = 0
KRO1 150330Z 07004KT 28/19 A3009 RMK A01 T02810185  RH  056%=      5-min Rain = 0
KRO1 150331Z 07005KT 28/19 A3009 RMK A01 T02810185  RH  056%=      5-min Rain = 0
KRO1 150332Z 07004KT 28/19 A3009 RMK A01 T02810185  RH  056%=      5-min Rain = 0
KRO1 150333Z 07005KT 28/19 A3009 RMK A01 T02800185  RH  056%=      5-min Rain = 0
KRO1 150334Z 07005KT 28/19 A3009 RMK A01 T02800185  RH  056%=      5-min Rain = 0
KRO1 150335Z 07005KT 28/19 A3009 RMK A01 T02790185  RH  056%=      5-min Rain = 0
KRO1 150336Z 07005KT 28/19 A3009 RMK A01 T02790185  RH  057%=      5-min Rain = 0
KRO1 150337Z 07004KT 28/19 A3009 RMK A01 T02790185  RH  057%=      5-min Rain = 0
KRO1 150338Z 08005KT 28/19 A3009 RMK A01 T02790185  RH  057%=      5-min Rain = 0
KRO1 150339Z 08005KT 28/18 A3009 RMK A01 T02790184  RH  057%=      5-min Rain = 0
KRO1 150340Z 08004KT 28/18 A3009 RMK A01 T02790184  RH  056%=      5-min Rain = 0
KRO1 150341Z 08005KT 28/18 A3009 RMK A01 T02780184  RH  056%=      5-min Rain = 0
KRO1 150342Z 09005KT 28/18 A3009 RMK A01 T02780183  RH  056%=      5-min Rain = 0
KRO1 150343Z 09005KT 28/18 A3009 RMK A01 T02780183  RH  056%=      5-min Rain = 0
KRO1 150344Z 09004KT 28/18 A3009 RMK A01 T02780183  RH  056%=      5-min Rain = 0
KRO1 150345Z 09004KT 28/18 A3009 RMK A01 T02780184  RH  056%=      5-min Rain = 0
KRO1 150346Z 10004KT 28/18 A3009 RMK A01 T02780184  RH  057%=      5-min Rain = 0
KRO1 150347Z 10003KT 28/19 A3009 RMK A01 T02780185  RH  057%=      5-min Rain = 0
KRO1 150348Z 10004KT 28/19 A3009 RMK A01 T02780185  RH  057%=      5-min Rain = 0
KRO1 150349Z 09005KT 28/19 A3009 RMK A01 T02780185  RH  057%=      5-min Rain = 0
KRO1 150350Z 09004KT 28/19 A3009 RMK A01 T02780185  RH  057%=      5-min Rain = 0
KRO1 150351Z 08005KT 28/19 A3009 RMK A01 T02780185  RH  057%=      5-min Rain = 0
KRO1 150352Z 08005KT 28/19 A3009 RMK A01 T02780185  RH  057%=      5-min Rain = 0
KRO1 150353Z 08006KT 28/19 A3009 RMK A01 T02780186  RH  057%=      5-min Rain = 0
KRO1 150354Z 07006KT 28/19 A3009 RMK A01 T02780186  RH  057%=      5-min Rain = 0
KRO1 150355Z 07006KT 28/19 A3009 RMK A01 T02780185  RH  057%=      5-min Rain = 0
KRO1 150356Z 07006KT 28/19 A3009 RMK A01 T02780186  RH  057%=      5-min Rain = 0
KRO1 150357Z 07008KT 28/19 A3009 RMK A01 T02790186  RH  057%=      5-min Rain = 0
KRO1 150358Z 07007KT 28/19 A3009 RMK A01 T02800186  RH  057%=      5-min Rain = 0
KRO1 150359Z 07007KT 28/19 A3009 RMK A01 T02810186  RH  056%=      5-min Rain = 0
KRO1 150400Z 06007KT 28/19 A3009 RMK A01 T02820186  RH  056%=      5-min Rain = 0
KRO1 150401Z 07007KT 28/19 A3009 RMK A01 T02820186  RH  056%=      5-min Rain = 0
KRO1 150402Z 07007KT 28/19 A3009 RMK A01 T02840186  RH  056%=      5-min Rain = 0
KRO1 150403Z 06008KT 28/19 A3009 RMK A01 T02840186  RH  055%=      5-min Rain = 0
KRO1 150404Z 06009KT 28/19 A3009 RMK A01 T02840187  RH  055%=      5-min Rain = 0
KRO1 150405Z 06008KT 29/19 A3009 RMK A01 T02850187  RH  055%=      5-min Rain = 0
KRO1 150406Z 06008KT 29/19 A3009 RMK A01 T02860187  RH  055%=      5-min Rain = 0
KRO1 150407Z 06008KT 29/19 A3009 RMK A01 T02860187  RH  055%=      5-min Rain = 0
KRO1 150408Z 06008KT 29/19 A3009 RMK A01 T02860187  RH  055%=      5-min Rain = 0
KRO1 150409Z 07008KT 29/19 A3009 RMK A01 T02860187  RH  055%=      5-min Rain = 0
KRO1 150410Z 06008KT 29/19 A3009 RMK A01 T02870187  RH  055%=      5-min Rain = 0
KRO1 150411Z 06008KT 29/19 A3009 RMK A01 T02870187  RH  055%=      5-min Rain = 0
KRO1 150412Z 06008KT 29/19 A3009 RMK A01 T02870187  RH  055%=      5-min Rain = 0
KRO1 150413Z 06008KT 29/19 A3009 RMK A01 T02860187  RH  055%=      5-min Rain = 0
KRO1 150414Z 06008KT 29/19 A3009 RMK A01 T02860187  RH  055%=      5-min Rain = 0
KRO1 150415Z 06008KT 29/19 A3009 RMK A01 T02860187  RH  055%=      5-min Rain = 0
KRO1 150416Z 06009KT 29/19 A3009 RMK A01 T02860187  RH  055%=      5-min Rain = 0
KRO1 150417Z 06009KT 29/19 A3009 RMK A01 T02860187  RH  055%=      5-min Rain = 0
KRO1 150418Z 06009KT 29/19 A3009 RMK A01 T02860187  RH  055%=      5-min Rain = 0
KRO1 150419Z 06010KT 29/19 A3009 RMK A01 T02870187  RH  055%=      5-min Rain = 0
KRO1 150420Z 06009KT 29/19 A3009 RMK A01 T02880188  RH  055%=      5-min Rain = 0
KRO1 150421Z 06009KT 29/19 A3009 RMK A01 T02880188  RH  054%=      5-min Rain = 0
KRO1 150422Z 06009KT 29/19 A3009 RMK A01 T02880187  RH  054%=      5-min Rain = 0
KRO1 150423Z 06009KT 29/19 A3009 RMK A01 T02880188  RH  054%=      5-min Rain = 0
KRO1 150424Z 06009KT 29/19 A3009 RMK A01 T02880188  RH  054%=      5-min Rain = 0
KRO1 150425Z 07010KT 29/19 A3009 RMK A01 T02880187  RH  054%=      5-min Rain = 0
KRO1 150426Z 07009KT 29/19 A3009 RMK A01 T02890188  RH  054%=      5-min Rain = 0
KRO1 150427Z 07009KT 29/19 A301 RMK A01 T02880188  RH  055%=      5-min Rain = 0
KRO1 150428Z 07008KT 29/19 A301 RMK A01 T02880188  RH  055%=      5-min Rain = 0
KRO1 150429Z 07009KT 29/19 A301 RMK A01 T02880188  RH  055%=      5-min Rain = 0
KRO1 150430Z 07009KT 29/19 A301 RMK A01 T02880188  RH  055%=      5-min Rain = 0
KRO1 150431Z 07008KT 29/19 A301 RMK A01 T02870188  RH  055%=      5-min Rain = 0
KRO1 150432Z 07008KT 29/19 A301 RMK A01 T02870188  RH  055%=      5-min Rain = 0
KRO1 150433Z 07008KT 29/19 A301 RMK A01 T02870188  RH  055%=      5-min Rain = 0
KRO1 150434Z 08008KT 29/19 A301 RMK A01 T02870188  RH  055%=      5-min Rain = 0
KRO1 150435Z 08008KT 29/19 A301 RMK A01 T02870188  RH  055%=      5-min Rain = 0
KRO1 150436Z 08008KT 29/19 A301 RMK A01 T02860188  RH  055%=      5-min Rain = 0
KRO1 150437Z 08008KT 29/19 A301 RMK A01 T02860188  RH  055%=      5-min Rain = 0
KRO1 150438Z 08008KT 29/19 A301 RMK A01 T02870188  RH  055%=      5-min Rain = 0
KRO1 150439Z 08009KT 29/19 A301 RMK A01 T02860188  RH  055%=      5-min Rain = 0
KRO1 150440Z 08008KT 29/19 A301 RMK A01 T02860188  RH  055%=      5-min Rain = 0
KRO1 150441Z 07008KT 29/19 A301 RMK A01 T02860188  RH  055%=      5-min Rain = 0
KRO1 150442Z 08009KT 29/19 A301 RMK A01 T02860188  RH  055%=      5-min Rain = 0
KRO1 150443Z 09009KT 29/19 A301 RMK A01 T02870189  RH  055%=      5-min Rain = 0
KRO1 150444Z 10008KT 29/19 A301 RMK A01 T02860189  RH  055%=      5-min Rain = 0
KRO1 150445Z 10008KT 29/19 A301 RMK A01 T02860189  RH  056%=      5-min Rain = 0
KRO1 150446Z 10008KT 29/19 A301 RMK A01 T02860189  RH  056%=      5-min Rain = 0
KRO1 150447Z 10008KT 29/19 A301 RMK A01 T02850189  RH  056%=      5-min Rain = 0
KRO1 150448Z 09009KT 29/19 A301 RMK A01 T02850189  RH  056%=      5-min Rain = 0
KRO1 150449Z 09007KT 28/19 A301 RMK A01 T02840189  RH  056%=      5-min Rain = 0
KRO1 150450Z 09007KT 28/19 A301 RMK A01 T02830189  RH  057%=      5-min Rain = 0
KRO1 150451Z 09007KT 28/19 A301 RMK A01 T02830189  RH  057%=      5-min Rain = 0
KRO1 150452Z 09008KT 28/19 A301 RMK A01 T02820189  RH  057%=      5-min Rain = 0
KRO1 150453Z 10007KT 28/19 A301 RMK A01 T02820189  RH  057%=      5-min Rain = 0
KRO1 150454Z 10008KT 28/19 A301 RMK A01 T02810189  RH  057%=      5-min Rain = 0
KRO1 150455Z 10007KT 28/19 A301 RMK A01 T02810189  RH  058%=      5-min Rain = 0
KRO1 150456Z 10008KT 28/19 A301 RMK A01 T02800190  RH  058%=      5-min Rain = 0
KRO1 150457Z 10008KT 28/19 A3011 RMK A01 T02800189  RH  058%=      5-min Rain = 0
KRO1 150458Z 10008KT 28/19 A3011 RMK A01 T02800189  RH  058%=      5-min Rain = 0
KRO1 150459Z 09006KT 28/19 A3011 RMK A01 T02790189  RH  058%=      5-min Rain = 0

Page generated in 0.1259 seconds.